UA1060 / N87513 7700 Squawk Report (7th of May, 2020)

Aircraft B738 Reg No. N87513 Age 12 years old
Model 737 Jet engines 2 First flight 19-06-08
Registered 30-11-11 Rollout 05-06-08 Delivered 30-06-08
Construction No. 31621 Line No. 2655 Series 824
ADSHEX AC0B80 Airline name United Airlines Owner N/A
Airfield based Houston-George Bush Intercontinental~TX~N First tracked N/A

Flight history for N87513

Route Flight No Date Playback
Daniel Oduber Quiros Intl (LIR) - George Bush Intercontinental (IAH) UA1516 2020-07-10 19:46:00
George Bush Intercontinental (IAH) - Daniel Oduber Quiros Intl (LIR) UA2766 2020-07-10 17:39:00
Los Angeles Intl (LAX) - George Bush Intercontinental (IAH) UA2580 2020-07-08 17:16:00
Daniel K. Inouye International (HNL) - Los Angeles Intl (LAX) UA2584 2020-07-08 12:09:00
Los Angeles Intl (LAX) - Daniel K. Inouye International (HNL) UA2575 2020-07-08 06:36:00
Sierra Vista Muni Libby Aaf (FHU) - Los Angeles Intl (LAX) UA2572 2020-07-07 23:43:00
Lackland Afb Kelly Fld Annex (SKF) - Sierra Vista Muni Libby Aaf (FHU) UA2573 2020-07-07 19:23:00
George Bush Intercontinental (IAH) - Lackland Afb Kelly Fld Annex (SKF) UA2582 2020-07-07 17:41:00
San Francisco Intl (SFO) - George Bush Intercontinental (IAH) UA1107 2020-07-03 11:09:00
George Bush Intercontinental (IAH) - San Francisco Intl (SFO) UA1597 2020-07-02 18:08:00
Cyril E King (STT) - George Bush Intercontinental (IAH) UA2208 2020-06-29 22:48:00
George Bush Intercontinental (IAH) - Cyril E King (STT) - Luis Munoz Marin Intl (SJU) UA2148 2020-06-28 20:18:00
John Wayne Arpt Orange Co (SNA) - George Bush Intercontinental (IAH) UA1492 2020-06-27 22:58:00
George Bush Intercontinental (IAH) - John Wayne Arpt Orange Co (SNA) UA2071 2020-06-27 17:32:00
Colorado Springs Municipal (COS) - George Bush Intercontinental (IAH) UA2583 2020-06-25 22:21:00
Alexandria Intl (AEX) - Colorado Springs Municipal (COS) UA2571 2020-06-25 19:36:00
George Bush Intercontinental (IAH) - Alexandria Intl (AEX) UA2582 2020-06-25 16:41:00
La Aurora (GUA) - George Bush Intercontinental (IAH) UA2481 2020-06-23 20:35:00
George Bush Intercontinental (IAH) - La Aurora (GUA) UA2766 2020-06-23 18:13:00
La Mesa Intl (SAP) - George Bush Intercontinental (IAH) UA2433 2020-06-19 21:28:00
Time Lat Lon Altitude Heading Speed Vertical Rate
2020-05-07 15:42:48 GMT 29.983530 -95.333969 0 358 8 0
2020-05-07 15:42:45 GMT 29.983431 -95.333961 0 359 9 0
2020-05-07 15:42:42 GMT 29.983320 -95.333961 0 357 13 0
2020-05-07 15:42:39 GMT 29.983150 -95.333961 0 359 10 0
2020-05-07 15:42:36 GMT 29.983021 -95.333969 0 356 11 0
2020-05-07 15:42:33 GMT 29.982861 -95.333946 0 356 11 0
2020-05-07 15:42:30 GMT 29.982719 -95.333961 0 0 14 0
2020-05-07 15:42:27 GMT 29.982519 -95.333946 0 2 13 0
2020-05-07 15:42:24 GMT 29.982349 -95.333961 0 8 8 0
2020-05-07 15:42:21 GMT 29.982189 -95.333977 0 0 13 0
2020-05-07 15:42:18 GMT 29.982040 -95.333961 0 359 13 0
2020-05-07 15:42:15 GMT 29.981880 -95.333961 0 3 12 0
2020-05-07 15:42:12 GMT 29.981770 -95.333977 0 359 18 0
2020-05-07 15:42:09 GMT 29.981489 -95.333969 0 358 13 0
2020-05-07 15:42:06 GMT 29.981279 -95.333939 0 5 11 0
2020-05-07 15:42:03 GMT 29.981171 -95.333969 0 357 12 0
2020-05-07 15:42:00 GMT 29.980989 -95.333961 0 357 12 0
2020-05-07 15:41:57 GMT 29.980860 -95.333977 0 358 17 0
2020-05-07 15:41:54 GMT 29.980610 -95.333992 0 1 15 0
2020-05-07 15:41:51 GMT 29.980391 -95.333961 0 5 14 0
2020-05-07 15:41:48 GMT 29.980200 -95.334000 0 353 15 0
2020-05-07 15:41:45 GMT 29.979959 -95.333961 0 0 11 0
2020-05-07 15:41:42 GMT 29.979820 -95.333977 0 353 13 0
2020-05-07 15:41:39 GMT 29.979639 -95.333969 0 0 11 0
2020-05-07 15:41:36 GMT 29.979500 -95.333969 0 356 9 0
2020-05-07 15:41:33 GMT 29.979309 -95.333961 0 354 7 0
2020-05-07 15:41:30 GMT 29.979210 -95.333961 0 344 7 0
2020-05-07 15:41:27 GMT 29.979130 -95.333961 0 333 7 0
2020-05-07 15:41:24 GMT 29.979059 -95.333931 0 322 8 0
2020-05-07 15:41:21 GMT 29.978960 -95.333839 0 333 7 0
2020-05-07 15:41:18 GMT 29.978830 -95.333801 0 323 10 0
2020-05-07 15:41:15 GMT 29.978760 -95.333687 0 295 8 0
2020-05-07 15:41:12 GMT 29.978710 -95.333588 0 274 9 0
2020-05-07 15:41:09 GMT 29.978710 -95.333443 0 276 10 0
2020-05-07 15:41:06 GMT 29.978670 -95.333282 0 267 13 0
2020-05-07 15:41:03 GMT 29.978689 -95.333092 0 259 12 0
2020-05-07 15:41:00 GMT 29.978729 -95.332909 0 273 12 0
2020-05-07 15:40:57 GMT 29.978649 -95.332733 0 266 14 0
2020-05-07 15:40:54 GMT 29.978701 -95.332489 0 253 14 0
2020-05-07 15:40:51 GMT 29.978661 -95.332291 0 260 14 0
2020-05-07 15:40:48 GMT 29.978710 -95.332092 0 276 17 0
2020-05-07 15:40:45 GMT 29.978710 -95.331810 0 277 12 0
2020-05-07 15:40:42 GMT 29.978680 -95.331619 0 274 16 0
2020-05-07 15:40:39 GMT 29.978649 -95.331352 0 263 16 0
2020-05-07 15:40:36 GMT 29.978689 -95.331100 0 266 13 0
2020-05-07 15:40:33 GMT 29.978701 -95.330856 0 268 15 0
2020-05-07 15:40:30 GMT 29.978689 -95.330627 0 274 15 0
2020-05-07 15:40:27 GMT 29.978720 -95.330391 0 272 15 0
2020-05-07 15:40:24 GMT 29.978689 -95.330147 0 276 15 0
2020-05-07 15:40:21 GMT 29.978701 -95.329910 0 273 14 0
2020-05-07 15:40:18 GMT 29.978689 -95.329643 0 260 15 0
2020-05-07 15:40:15 GMT 29.978710 -95.329422 0 270 16 0
2020-05-07 15:40:12 GMT 29.978670 -95.329170 0 271 14 0
2020-05-07 15:40:09 GMT 29.978729 -95.328918 0 273 15 0
2020-05-07 15:40:06 GMT 29.978729 -95.328659 0 274 14 0
2020-05-07 15:40:03 GMT 29.978710 -95.328423 0 270 15 0
2020-05-07 15:40:00 GMT 29.978710 -95.328178 0 280 15 0
2020-05-07 15:39:57 GMT 29.978680 -95.327957 0 267 18 0
2020-05-07 15:39:54 GMT 29.978720 -95.327682 0 279 15 0
2020-05-07 15:39:51 GMT 29.978670 -95.327408 0 264 14 0
2020-05-07 15:39:48 GMT 29.978720 -95.326973 0 271 13 0
2020-05-07 15:39:45 GMT 29.978720 -95.326973 0 274 16 0
2020-05-07 15:39:42 GMT 29.978689 -95.326691 0 277 15 0
2020-05-07 15:39:39 GMT 29.978720 -95.326469 0 262 15 0
2020-05-07 15:39:36 GMT 29.978670 -95.326187 0 273 17 0
2020-05-07 15:39:33 GMT 29.978729 -95.325943 0 280 15 0
2020-05-07 15:39:30 GMT 29.978670 -95.325706 0 263 16 0
2020-05-07 15:39:27 GMT 29.978689 -95.325470 0 258 16 0
2020-05-07 15:39:24 GMT 29.978741 -95.325218 0 276 14 0
2020-05-07 15:39:21 GMT 29.978701 -95.324997 0 274 15 0
2020-05-07 15:39:18 GMT 29.978710 -95.324730 0 267 19 0
2020-05-07 15:39:15 GMT 29.978720 -95.324478 0 277 15 0
2020-05-07 15:39:12 GMT 29.978680 -95.324226 0 279 15 0
2020-05-07 15:39:09 GMT 29.978701 -95.324013 0 277 17 0
2020-05-07 15:39:06 GMT 29.978649 -95.323753 0 259 16 0
2020-05-07 15:39:03 GMT 29.978661 -95.323479 0 259 17 0
2020-05-07 15:39:00 GMT 29.978661 -95.323212 0 282 16 0
2020-05-07 15:38:57 GMT 29.978680 -95.322968 0 269 17 0
2020-05-07 15:38:54 GMT 29.978710 -95.322670 0 271 16 0
2020-05-07 15:38:51 GMT 29.978680 -95.322441 0 268 20 0
2020-05-07 15:38:48 GMT 29.978701 -95.322090 0 268 14 0
2020-05-07 15:38:45 GMT 29.978710 -95.321602 0 270 19 0
2020-05-07 15:38:42 GMT 29.978710 -95.321602 0 273 18 0
2020-05-07 15:38:39 GMT 29.978670 -95.321297 0 267 17 0
2020-05-07 15:38:36 GMT 29.978649 -95.321030 0 262 19 0
2020-05-07 15:38:33 GMT 29.978729 -95.320740 0 277 17 0
2020-05-07 15:38:30 GMT 29.978661 -95.320473 0 273 17 0
2020-05-07 15:38:27 GMT 29.978689 -95.320198 0 265 15 0
2020-05-07 15:38:24 GMT 29.978729 -95.319962 0 272 16 0
2020-05-07 15:38:21 GMT 29.978701 -95.319702 0 268 15 0
2020-05-07 15:38:18 GMT 29.978720 -95.319458 0 260 16 0
2020-05-07 15:38:15 GMT 29.978760 -95.319199 0 276 15 0
2020-05-07 15:38:12 GMT 29.978729 -95.318977 0 269 12 0
2020-05-07 15:38:09 GMT 29.978710 -95.318787 0 266 15 0
2020-05-07 15:38:06 GMT 29.978750 -95.318520 0 276 11 0
2020-05-07 15:38:03 GMT 29.978710 -95.318336 0 275 12 0
2020-05-07 15:38:00 GMT 29.978710 -95.318169 0 266 12 0
2020-05-07 15:37:57 GMT 29.978680 -95.317970 0 262 12 0
2020-05-07 15:37:54 GMT 29.978701 -95.317780 0 274 11 0
2020-05-07 15:37:51 GMT 29.978701 -95.317383 0 268 12 0
2020-05-07 15:37:48 GMT 29.978701 -95.317383 0 272 12 0
2020-05-07 15:37:45 GMT 29.978680 -95.317177 0 264 13 0
2020-05-07 15:37:42 GMT 29.978689 -95.316978 0 269 14 0
2020-05-07 15:37:39 GMT 29.978710 -95.316750 0 266 14 0
2020-05-07 15:37:36 GMT 29.978710 -95.316544 0 268 13 0
2020-05-07 15:37:33 GMT 29.978720 -95.316330 0 271 15 0
2020-05-07 15:37:30 GMT 29.978701 -95.316109 0 269 15 0
2020-05-07 15:37:27 GMT 29.978710 -95.315880 0 269 17 0
2020-05-07 15:37:24 GMT 29.978720 -95.315620 0 267 15 0
2020-05-07 15:37:21 GMT 29.978701 -95.315399 0 269 14 0
2020-05-07 15:37:18 GMT 29.978689 -95.315140 0 269 12 0
2020-05-07 15:37:15 GMT 29.978710 -95.314972 0 265 13 0
2020-05-07 15:37:12 GMT 29.978741 -95.314758 0 271 11 0
2020-05-07 15:37:09 GMT 29.978741 -95.314598 0 270 11 0
2020-05-07 15:37:06 GMT 29.978720 -95.314438 0 267 10 0
2020-05-07 15:37:03 GMT 29.978729 -95.314270 0 270 7 0
2020-05-07 15:37:00 GMT 29.978741 -95.314148 0 280 6 0
2020-05-07 15:36:57 GMT 29.978750 -95.314049 0 284 5 0
2020-05-07 15:36:54 GMT 29.978729 -95.313957 0 285 6 0
2020-05-07 15:36:51 GMT 29.978710 -95.313858 0 297 5 0
2020-05-07 15:36:48 GMT 29.978701 -95.313782 0 309 4 0
2020-05-07 15:36:45 GMT 29.978701 -95.313713 0 341 8 0
2020-05-07 15:36:42 GMT 29.978600 -95.313652 0 21 7 0
2020-05-07 15:36:39 GMT 29.978519 -95.313652 0 30 8 0
2020-05-07 15:36:36 GMT 29.978411 -95.313690 0 55 5 0
2020-05-07 15:36:33 GMT 29.978340 -95.313782 0 68 7 0
2020-05-07 15:36:30 GMT 29.978319 -95.313881 0 63 7 0
2020-05-07 15:36:27 GMT 29.978270 -95.314003 0 59 9 0
2020-05-07 15:36:24 GMT 29.978220 -95.314110 0 56 8 0
2020-05-07 15:36:21 GMT 29.978161 -95.314232 0 57 9 0
2020-05-07 15:36:18 GMT 29.978090 -95.314362 0 64 7 0
2020-05-07 15:36:15 GMT 29.978020 -95.314453 0 69 9 0
2020-05-07 15:36:12 GMT 29.977989 -95.314552 0 63 8 0
2020-05-07 15:36:09 GMT 29.977921 -95.314690 0 71 8 0
2020-05-07 15:36:06 GMT 29.977900 -95.314789 0 66 8 0
2020-05-07 15:36:03 GMT 29.977880 -95.314941 0 62 10 0
2020-05-07 15:36:00 GMT 29.977800 -95.315079 0 64 10 0
2020-05-07 15:35:57 GMT 29.977730 -95.315224 0 77 9 0
2020-05-07 15:35:54 GMT 29.977699 -95.315338 0 76 8 0
2020-05-07 15:35:51 GMT 29.977659 -95.315498 0 78 7 0
2020-05-07 15:35:48 GMT 29.977640 -95.315590 0 95 7 0
2020-05-07 15:35:45 GMT 29.977619 -95.315681 0 90 6 0
2020-05-07 15:35:42 GMT 29.977650 -95.315773 0 70 6 0
2020-05-07 15:35:39 GMT 29.977631 -95.315880 0 92 4 0
2020-05-07 15:35:36 GMT 29.977631 -95.315903 0 131 3 0
2020-05-07 15:35:33 GMT 29.977600 -95.315971 0 141 2 0
2020-05-07 15:35:30 GMT 29.977591 -95.316017 0 145 0 0
2020-05-07 15:35:27 GMT 29.977600 -95.316017 0 145 0 0
2020-05-07 15:35:24 GMT 29.977600 -95.316032 0 144 1 0
2020-05-07 15:35:21 GMT 29.977619 -95.316010 0 144 0 0
2020-05-07 15:35:18 GMT 29.977619 -95.316040 0 143 1 0
2020-05-07 15:35:15 GMT 29.977631 -95.316002 0 139 0 0
2020-05-07 15:35:12 GMT 29.977640 -95.316010 0 150 1 0
2020-05-07 15:35:09 GMT 29.977631 -95.316017 0 152 2 -32
2020-05-07 15:35:06 GMT 29.977591 -95.316002 0 152 0 -32
2020-05-07 15:35:03 GMT 29.977610 -95.316032 0 151 1 -32
2020-05-07 15:35:00 GMT 29.977619 -95.316017 0 157 1 -32
2020-05-07 15:34:57 GMT 29.977591 -95.316017 0 154 1 -32
2020-05-07 15:34:54 GMT 29.977619 -95.316010 0 149 1 -32
2020-05-07 15:34:51 GMT 29.977619 -95.316010 0 147 0 -32
2020-05-07 15:34:48 GMT 29.977600 -95.316010 0 159 1 -32
2020-05-07 15:34:45 GMT 29.977570 -95.316040 0 157 1 -32
2020-05-07 15:34:42 GMT 29.977600 -95.316010 0 159 1 -32
2020-05-07 15:34:39 GMT 29.977591 -95.316040 0 159 1 0
2020-05-07 15:34:36 GMT 29.977631 -95.316048 0 158 0 0
2020-05-07 15:34:33 GMT 29.977600 -95.316032 0 157 1 0
2020-05-07 15:34:30 GMT 29.977600 -95.316032 0 155 0 0
2020-05-07 15:34:27 GMT 29.977610 -95.316032 0 154 1 0
2020-05-07 15:34:24 GMT 29.977619 -95.316032 0 157 2 0
2020-05-07 15:34:21 GMT 29.977579 -95.316017 0 160 1 0
2020-05-07 15:34:18 GMT 29.977570 -95.316017 0 158 1 0
2020-05-07 15:34:15 GMT 29.977591 -95.316040 0 157 2 0
2020-05-07 15:34:12 GMT 29.977610 -95.316017 0 155 1 0
2020-05-07 15:34:09 GMT 29.977619 -95.316017 0 157 1 0
2020-05-07 15:34:06 GMT 29.977619 -95.316147 0 158 0 -32
2020-05-07 15:34:03 GMT 29.977631 -95.316109 0 158 0 -32
2020-05-07 15:34:00 GMT 29.977631 -95.316101 0 162 0 -32
2020-05-07 15:33:57 GMT 29.977631 -95.316101 0 163 0 -32
2020-05-07 15:33:54 GMT 29.977631 -95.316231 0 163 0 -32
2020-05-07 15:33:51 GMT 29.977619 -95.316200 0 163 0 -32
2020-05-07 15:33:48 GMT 29.977619 -95.316170 0 161 1 -32
2020-05-07 15:33:45 GMT 29.977631 -95.316254 0 155 2 0
2020-05-07 15:33:42 GMT 29.977640 -95.316116 0 155 1 0
2020-05-07 15:33:39 GMT 29.977631 -95.316170 0 152 2 0
2020-05-07 15:33:36 GMT 29.977619 -95.316093 0 152 1 0
2020-05-07 15:33:33 GMT 29.977579 -95.316040 0 151 1 0
2020-05-07 15:33:30 GMT 29.977579 -95.316032 0 149 1 0
2020-05-07 15:33:27 GMT 29.977619 -95.316010 0 147 1 0
2020-05-07 15:33:24 GMT 29.977619 -95.316010 0 144 1 0
2020-05-07 15:33:21 GMT 29.977631 -95.316078 0 136 1 0
2020-05-07 15:33:18 GMT 29.977591 -95.316040 0 130 2 0
2020-05-07 15:33:15 GMT 29.977600 -95.316017 0 130 0 0
2020-05-07 15:33:12 GMT 29.977610 -95.316017 0 134 0 0
2020-05-07 15:33:09 GMT 29.977591 -95.316017 0 134 0 0
2020-05-07 15:33:06 GMT 29.977600 -95.316017 0 128 1 0
2020-05-07 15:33:03 GMT 29.977610 -95.316017 0 127 0 0
2020-05-07 15:33:00 GMT 29.977610 -95.316002 0 127 0 0
2020-05-07 15:32:57 GMT 29.977600 -95.316010 0 135 0 0
2020-05-07 15:32:54 GMT 29.977579 -95.316032 0 133 1 0
2020-05-07 15:32:51 GMT 29.977600 -95.316040 0 114 3 0
2020-05-07 15:32:48 GMT 29.977600 -95.316010 0 108 2 0
2020-05-07 15:32:45 GMT 29.977591 -95.316063 0 108 6 0
2020-05-07 15:32:42 GMT 29.977591 -95.316200 0 90 20 -32
2020-05-07 15:32:39 GMT 29.977680 -95.316452 0 84 30 -32
2020-05-07 15:32:36 GMT 29.977640 -95.316963 -150 88 51 -32
2020-05-07 15:32:33 GMT 29.977631 -95.317719 -150 89 63 -32
2020-05-07 15:32:30 GMT 29.977610 -95.320091 -150 90 85 32
2020-05-07 15:32:27 GMT 29.977610 -95.320091 -150 90 94 32
2020-05-07 15:32:24 GMT 29.977640 -95.321648 -150 88 104 -160
2020-05-07 15:32:21 GMT 29.977610 -95.325348 -150 89 135 -320
2020-05-07 15:32:18 GMT 29.977610 -95.325348 -150 89 143 -320
2020-05-07 15:32:15 GMT 29.977619 -95.327553 -150 89 147 -320
2020-05-07 15:32:12 GMT 29.977570 -95.329903 -100 89 150 -320
2020-05-07 15:32:09 GMT 29.977579 -95.332329 -100 90 153 -320
2020-05-07 15:32:06 GMT 29.977591 -95.334763 100 88 152 32
2020-05-07 15:32:03 GMT 29.977591 -95.337212 100 90 152 32
2020-05-07 15:32:00 GMT 29.977600 -95.339630 100 90 150 32
2020-05-07 15:31:57 GMT 29.977659 -95.344429 100 89 146 32
2020-05-07 15:31:54 GMT 29.977659 -95.344429 200 89 147 32
2020-05-07 15:31:51 GMT 29.977600 -95.346840 150 90 152 0
2020-05-07 15:31:48 GMT 29.977610 -95.349319 200 88 150 0
2020-05-07 15:31:45 GMT 29.977579 -95.351707 250 88 145 0
2020-05-07 15:31:42 GMT 29.977551 -95.354027 400 90 147 160
2020-05-07 15:31:39 GMT 29.977600 -95.356430 400 89 148 -768
2020-05-07 15:31:36 GMT 29.977610 -95.361221 400 89 149 -768
2020-05-07 15:31:33 GMT 29.977610 -95.361221 350 90 151 -768
2020-05-07 15:31:30 GMT 29.977619 -95.363586 450 87 157 -768
2020-05-07 15:31:27 GMT 29.977579 -95.366028 450 88 153 -768
2020-05-07 15:31:24 GMT 29.977591 -95.368401 475 90 150 -768
2020-05-07 15:31:21 GMT 29.977570 -95.370819 525 91 155 -768
2020-05-07 15:31:18 GMT 29.977619 -95.373260 600 90 149 -768
2020-05-07 15:31:15 GMT 29.977619 -95.375618 600 90 155 -768
2020-05-07 15:31:12 GMT 29.977610 -95.378120 700 90 150 -768
2020-05-07 15:31:09 GMT 29.977631 -95.380508 725 90 160 -768
2020-05-07 15:31:06 GMT 29.977631 -95.382988 800 89 157 -800
2020-05-07 15:31:03 GMT 29.977619 -95.385498 800 88 154 -800
2020-05-07 15:31:00 GMT 29.977591 -95.387909 875 88 154 -800
2020-05-07 15:30:57 GMT 29.977570 -95.390503 875 91 156 -800
2020-05-07 15:30:54 GMT 29.977610 -95.392906 1,000 90 162 -800
2020-05-07 15:30:51 GMT 29.977619 -95.395393 1,000 89 159 -800
2020-05-07 15:30:48 GMT 29.977560 -95.397942 1,000 90 158 -800
2020-05-07 15:30:45 GMT 29.977619 -95.400452 1,100 90 158 -800
2020-05-07 15:30:42 GMT 29.977600 -95.402969 1,100 89 157 -800
2020-05-07 15:30:39 GMT 29.977579 -95.405441 1,100 90 159 -800
2020-05-07 15:30:36 GMT 29.977570 -95.407921 1,150 88 152 -800
2020-05-07 15:30:33 GMT 29.977480 -95.412987 1,300 89 154 -800
2020-05-07 15:30:30 GMT 29.977480 -95.412987 1,300 89 156 -800
2020-05-07 15:30:27 GMT 29.977461 -95.415428 1,300 89 155 -800
2020-05-07 15:30:24 GMT 29.977409 -95.420403 1,500 88 155 -800
2020-05-07 15:30:21 GMT 29.977409 -95.420403 1,500 89 153 -800
2020-05-07 15:30:18 GMT 29.977400 -95.422859 1,500 89 151 -800
2020-05-07 15:30:15 GMT 29.977329 -95.425240 1,500 89 153 -800
2020-05-07 15:30:12 GMT 29.977301 -95.430107 1,500 90 151 -800
2020-05-07 15:30:09 GMT 29.977301 -95.430107 1,500 90 152 -800
2020-05-07 15:30:06 GMT 29.977289 -95.432549 1,500 90 149 -1056
2020-05-07 15:30:03 GMT 29.977310 -95.434929 1,600 91 154 -1056
2020-05-07 15:30:00 GMT 29.977390 -95.437393 1,800 90 151 -1056
2020-05-07 15:29:57 GMT 29.977461 -95.439796 1,800 90 153 -1056
2020-05-07 15:29:54 GMT 29.977480 -95.442268 1,800 90 152 -1056
2020-05-07 15:29:51 GMT 29.977510 -95.444641 1,800 90 154 -1056
2020-05-07 15:29:48 GMT 29.977501 -95.447166 1,900 91 153 -1056
2020-05-07 15:29:45 GMT 29.977560 -95.449509 1,900 91 154 -1056
2020-05-07 15:29:42 GMT 29.977619 -95.451958 1,900 92 153 -1056
2020-05-07 15:29:39 GMT 29.977680 -95.454391 1,900 91 154 -1056
2020-05-07 15:29:36 GMT 29.977770 -95.456871 2,000 91 151 -1056
2020-05-07 15:29:33 GMT 29.977831 -95.459297 2,100 91 156 -1056
2020-05-07 15:29:30 GMT 29.977850 -95.461891 2,100 91 152 -1056
2020-05-07 15:29:27 GMT 29.977921 -95.464218 2,100 92 154 -1056
2020-05-07 15:29:24 GMT 29.977989 -95.466690 2,100 93 151 -1056
2020-05-07 15:29:21 GMT 29.978121 -95.469139 2,400 89 160 -1056
2020-05-07 15:29:18 GMT 29.978251 -95.471527 2,400 88 171 -1056
2020-05-07 15:29:15 GMT 29.978151 -95.473938 2,250 90 159 -1088
2020-05-07 15:29:10 GMT 29.978151 -95.478333 2,375 89 160 -1152
2020-05-07 15:29:07 GMT 29.978151 -95.480804 2,400 89 160 -1088
2020-05-07 15:29:04 GMT 29.978165 -95.482880 2,450 90 160 -1088
2020-05-07 15:29:00 GMT 29.978151 -95.487122 2,525 90 161 -1024
2020-05-07 15:28:57 GMT 29.978197 -95.489098 2,575 91 161 -960
2020-05-07 15:28:53 GMT 29.978256 -95.492355 2,625 90 161 -832
2020-05-07 15:28:49 GMT 29.978291 -95.496567 2,675 90 161 -448
2020-05-07 15:28:46 GMT 29.978302 -95.498283 2,700 90 161 -448
2020-05-07 15:28:43 GMT 29.978302 -95.501457 2,725 91 160 -512
2020-05-07 15:28:38 GMT 29.978338 -95.505356 2,750 91 160 -448
2020-05-07 15:28:34 GMT 29.978477 -95.509644 2,800 90 162 -320
2020-05-07 15:28:29 GMT 29.978531 -95.514168 2,800 89 166 192
2020-05-07 15:28:25 GMT 29.978485 -95.516914 2,775 89 167 256
2020-05-07 15:28:22 GMT 29.978485 -95.519501 2,775 89 170 256
2020-05-07 15:28:18 GMT 29.978432 -95.523651 2,775 88 173 -64
2020-05-07 15:28:13 GMT 29.978338 -95.527939 2,775 86 175 -192
2020-05-07 15:28:07 GMT 29.978073 -95.533340 2,775 85 175 -128
2020-05-07 15:28:02 GMT 29.977707 -95.537971 2,775 85 175 128
2020-05-07 15:27:56 GMT 29.977360 -95.543259 2,775 85 175 128
2020-05-07 15:27:50 GMT 29.976883 -95.549873 2,775 83 178 -128
2020-05-07 15:27:47 GMT 29.976654 -95.552780 2,775 83 178 -128
2020-05-07 15:27:42 GMT 29.976288 -95.556824 2,775 82 177 -320
2020-05-07 15:27:36 GMT 29.975777 -95.562378 2,800 82 176 -384
2020-05-07 15:27:31 GMT 29.975220 -95.566551 2,825 79 177 64
2020-05-07 15:27:26 GMT 29.974319 -95.572220 2,800 79 179 384
2020-05-07 15:27:21 GMT 29.973679 -95.576317 2,750 62 186 64
2020-05-07 15:27:15 GMT 29.972658 -95.581825 2,775 73 182 -64
2020-05-07 15:27:10 GMT 29.971481 -95.586006 2,750 16 205 -256
2020-05-07 15:27:04 GMT 29.968735 -95.591232 2,750 48 193 64
2020-05-07 15:27:00 GMT 29.965815 -95.594788 2,750 38 198 192
2020-05-07 15:26:55 GMT 29.961594 -95.598289 2,750 28 203 -384
2020-05-07 15:26:47 GMT 29.955109 -95.601601 2,800 16 205 -256
2020-05-07 15:26:44 GMT 29.952393 -95.602379 2,800 8 208 -128
2020-05-07 15:26:39 GMT 29.947754 -95.602859 2,825 359 213 -128
2020-05-07 15:26:34 GMT 29.941727 -95.602486 2,800 352 221 192
2020-05-07 15:26:29 GMT 29.937607 -95.601791 2,775 349 224 256
2020-05-07 15:26:23 GMT 29.930923 -95.600121 2,775 339 225 -128
2020-05-07 15:26:18 GMT 29.926945 -95.598358 2,800 331 228 -256
2020-05-07 15:26:13 GMT 29.921078 -95.594238 2,800 320 230 -128
2020-05-07 15:26:09 GMT 29.918657 -95.591988 2,800 314 231 0
2020-05-07 15:26:06 GMT 29.915028 -95.587540 2,800 278 233 -128
2020-05-07 15:26:01 GMT 29.913116 -95.584503 2,800 302 234 128
2020-05-07 15:25:57 GMT 29.910919 -95.580154 2,800 293 236 128
2020-05-07 15:25:52 GMT 29.908556 -95.572601 2,775 283 234 128
2020-05-07 15:25:47 GMT 29.907764 -95.568237 2,775 279 233 0
2020-05-07 15:25:41 GMT 29.906799 -95.559982 2,800 278 232 -128
2020-05-07 15:25:35 GMT 29.905930 -95.552055 2,800 277 233 0
2020-05-07 15:25:30 GMT 29.901400 -95.545288 2,800 267 232 -64
2020-05-07 15:25:27 GMT 29.901520 -95.541588 2,800 267 232 -64
2020-05-07 15:25:24 GMT 29.901649 -95.537888 2,800 267 232 0
2020-05-07 15:25:21 GMT 29.901770 -95.534203 2,800 267 232 0
2020-05-07 15:25:18 GMT 29.901899 -95.530502 2,800 267 232 0
2020-05-07 15:25:15 GMT 29.902020 -95.526802 2,800 267 232 0
2020-05-07 15:25:12 GMT 29.902149 -95.523102 2,800 267 232 0
2020-05-07 15:25:09 GMT 29.902269 -95.519402 2,800 267 232 0
2020-05-07 15:25:06 GMT 29.902519 -95.512009 2,800 267 232 0
2020-05-07 15:25:03 GMT 29.902519 -95.512009 2,800 267 232 0
2020-05-07 15:25:00 GMT 29.902500 -95.508331 2,800 267 233 0
2020-05-07 15:24:57 GMT 29.902660 -95.504623 2,800 267 233 0
2020-05-07 15:24:54 GMT 29.902861 -95.500832 2,800 267 231 0
2020-05-07 15:24:51 GMT 29.902990 -95.497009 2,800 267 229 0
2020-05-07 15:24:48 GMT 29.903130 -95.493347 2,800 267 229 0
2020-05-07 15:24:45 GMT 29.903151 -95.489670 2,800 267 230 0
2020-05-07 15:24:42 GMT 29.903210 -95.485909 2,800 266 229 0
2020-05-07 15:24:39 GMT 29.903391 -95.482269 2,800 266 229 0
2020-05-07 15:24:36 GMT 29.903521 -95.478500 2,800 266 227 0
2020-05-07 15:24:33 GMT 29.903610 -95.474800 2,800 266 227 0
2020-05-07 15:24:30 GMT 29.903999 -95.467422 2,800 266 224 0
2020-05-07 15:24:27 GMT 29.903999 -95.467422 2,800 266 224 0
2020-05-07 15:24:24 GMT 29.904200 -95.463852 2,800 266 224 0
2020-05-07 15:24:21 GMT 29.904369 -95.459877 2,800 266 215 -128
2020-05-07 15:24:18 GMT 29.904440 -95.456177 2,800 266 211 -128
2020-05-07 15:24:15 GMT 29.904671 -95.452812 2,800 267 222 -128
2020-05-07 15:24:12 GMT 29.905041 -95.449638 2,800 267 222 -128
2020-05-07 15:24:09 GMT 29.905210 -95.446190 2,800 267 222 -128
2020-05-07 15:24:06 GMT 29.905310 -95.442589 2,800 268 225 -128
2020-05-07 15:24:03 GMT 29.905420 -95.439011 2,800 268 226 256
2020-05-07 15:24:00 GMT 29.905510 -95.435364 2,800 267 228 256
2020-05-07 15:23:57 GMT 29.905800 -95.428017 2,800 267 229 256
2020-05-07 15:23:54 GMT 29.905800 -95.428017 2,800 268 226 -64
2020-05-07 15:23:51 GMT 29.905970 -95.424377 2,800 268 231 -64
2020-05-07 15:23:48 GMT 29.906111 -95.420837 2,800 268 239 -32
2020-05-07 15:23:45 GMT 29.906210 -95.417061 2,800 267 236 0
2020-05-07 15:23:42 GMT 29.906441 -95.413261 2,800 263 233 0
2020-05-07 15:23:39 GMT 29.906799 -95.409561 2,800 260 231 0
2020-05-07 15:23:36 GMT 29.907351 -95.405998 2,800 253 234 0
2020-05-07 15:23:33 GMT 29.908251 -95.402390 2,800 246 233 0
2020-05-07 15:23:30 GMT 29.909439 -95.399010 2,800 242 233 0
2020-05-07 15:23:27 GMT 29.910910 -95.395737 2,800 239 235 0
2020-05-07 15:23:24 GMT 29.914551 -95.389771 2,800 226 227 -64
2020-05-07 15:23:21 GMT 29.914551 -95.389771 2,800 222 231 -64
2020-05-07 15:23:18 GMT 29.916771 -95.387161 2,800 219 230 192
2020-05-07 15:23:15 GMT 29.919220 -95.384804 2,800 215 232 192
2020-05-07 15:23:12 GMT 29.921810 -95.382721 2,800 207 227 192
2020-05-07 15:23:09 GMT 29.924610 -95.380959 2,775 201 223 -192
2020-05-07 15:23:06 GMT 29.927410 -95.379539 2,775 196 222 -192
2020-05-07 15:23:03 GMT 29.930330 -95.378517 2,800 193 224 -192
2020-05-07 15:23:00 GMT 29.936520 -95.377373 2,800 186 229 -192
2020-05-07 15:22:57 GMT 29.936520 -95.377373 2,800 183 223 -192
2020-05-07 15:22:54 GMT 29.939631 -95.377197 2,775 181 222 -192
2020-05-07 15:22:51 GMT 29.942671 -95.377159 2,775 177 220 -192
2020-05-07 15:22:48 GMT 29.945780 -95.377487 2,800 171 220 288
2020-05-07 15:22:45 GMT 29.948790 -95.378090 2,775 163 225 -192
2020-05-07 15:22:42 GMT 29.951820 -95.378983 2,775 159 225 -192
2020-05-07 15:22:39 GMT 29.954750 -95.380280 2,775 156 227 -192
2020-05-07 15:22:36 GMT 29.957569 -95.381767 2,775 149 227 -160
2020-05-07 15:22:33 GMT 29.960300 -95.383621 2,775 141 227 64
2020-05-07 15:22:30 GMT 29.962790 -95.385750 2,775 139 227 64
2020-05-07 15:22:27 GMT 29.967381 -95.390739 2,800 133 230 -960
2020-05-07 15:22:24 GMT 29.967381 -95.390739 2,800 129 230 0
2020-05-07 15:22:21 GMT 29.969400 -95.393608 2,800 125 230 0
2020-05-07 15:22:18 GMT 29.971121 -95.396523 2,800 118 238 0
2020-05-07 15:22:15 GMT 29.972670 -95.399879 2,800 112 237 0
2020-05-07 15:22:12 GMT 29.973970 -95.403343 2,800 108 232 0
2020-05-07 15:22:09 GMT 29.975000 -95.406792 2,800 103 239 0
2020-05-07 15:22:06 GMT 29.975691 -95.410439 2,800 94 239 0
2020-05-07 15:22:03 GMT 29.976061 -95.414261 2,800 89 238 64
2020-05-07 15:22:00 GMT 29.976130 -95.417999 2,800 88 238 64
2020-05-07 15:21:57 GMT 29.976040 -95.421867 2,800 88 236 64
2020-05-07 15:21:54 GMT 29.976009 -95.425598 2,800 89 235 64
2020-05-07 15:21:51 GMT 29.975969 -95.429337 2,800 89 229 64
2020-05-07 15:21:48 GMT 29.975910 -95.432991 2,800 89 236 64
2020-05-07 15:21:45 GMT 29.975849 -95.440521 2,800 89 233 -64
2020-05-07 15:21:42 GMT 29.975849 -95.440521 2,800 88 233 -64
2020-05-07 15:21:39 GMT 29.975740 -95.444260 2,800 89 231 -64
2020-05-07 15:21:36 GMT 29.975731 -95.447952 2,800 88 234 -64
2020-05-07 15:21:33 GMT 29.975660 -95.451759 2,800 89 233 -32
2020-05-07 15:21:30 GMT 29.975590 -95.455437 2,800 89 229 -32
2020-05-07 15:21:27 GMT 29.975550 -95.459091 2,800 89 232 -32
2020-05-07 15:21:24 GMT 29.975519 -95.462837 2,800 89 228 -32
2020-05-07 15:21:21 GMT 29.975519 -95.466400 2,800 87 238 0
2020-05-07 15:21:18 GMT 29.975439 -95.470093 2,800 88 243 0
2020-05-07 15:21:15 GMT 29.975405 -95.473557 2,800 89 229 0
2020-05-07 15:21:10 GMT 29.975327 -95.479164 2,800 89 228 -64
2020-05-07 15:21:07 GMT 29.975327 -95.482880 2,800 89 227 64
2020-05-07 15:21:04 GMT 29.975281 -95.486160 2,800 89 227 64
2020-05-07 15:21:01 GMT 29.975220 -95.491463 2,800 89 226 64
2020-05-07 15:20:55 GMT 29.975126 -95.498932 2,800 89 225 -64
2020-05-07 15:20:52 GMT 29.975126 -95.502174 2,800 89 225 -64
2020-05-07 15:20:43 GMT 29.975006 -95.512550 2,800 89 222 0
2020-05-07 15:20:40 GMT 29.974960 -95.516426 2,800 89 222 64
2020-05-07 15:20:32 GMT 29.974869 -95.525314 2,800 89 220 -64
2020-05-07 15:20:29 GMT 29.974846 -95.528816 2,800 89 220 -128
2020-05-07 15:20:25 GMT 29.974800 -95.532936 2,800 89 219 -64
2020-05-07 15:20:22 GMT 29.974777 -95.537323 2,800 90 218 64
2020-05-07 15:20:19 GMT 29.974777 -95.540932 2,800 90 217 0
2020-05-07 15:20:13 GMT 29.974869 -95.548531 2,800 91 213 64
2020-05-07 15:20:08 GMT 29.974939 -95.552872 2,800 91 213 64
2020-05-07 15:20:05 GMT 29.975006 -95.556068 2,800 91 213 0
2020-05-07 15:20:00 GMT 29.975126 -95.563202 2,800 91 211 0
2020-05-07 15:19:57 GMT 29.975172 -95.565018 2,800 91 211 0
2020-05-07 15:19:53 GMT 29.975266 -95.569962 2,800 91 209 128
2020-05-07 15:19:50 GMT 29.975311 -95.573364 2,800 90 209 64
2020-05-07 15:19:47 GMT 29.975357 -95.576492 2,775 87 210 64
2020-05-07 15:19:40 GMT 29.974686 -95.584824 2,800 77 212 -64
2020-05-07 15:19:37 GMT 29.973907 -95.587784 2,800 69 214 -64
2020-05-07 15:19:31 GMT 29.971169 -95.593468 2,800 48 218 128
2020-05-07 15:19:27 GMT 29.967630 -95.597862 2,775 35 221 128
2020-05-07 15:19:18 GMT 29.957657 -95.603348 2,800 9 227 0
2020-05-07 15:19:10 GMT 29.952347 -95.604156 2,775 0 230 192
2020-05-07 15:19:06 GMT 29.947037 -95.604103 2,775 351 230 -128
2020-05-07 15:18:58 GMT 29.938255 -95.601761 2,800 334 232 0
2020-05-07 15:18:54 GMT 29.935684 -95.600334 2,800 326 232 -64
2020-05-07 15:18:47 GMT 29.929047 -95.594246 2,800 308 232 64
2020-05-07 15:18:44 GMT 29.927582 -95.592201 2,800 303 232 64
2020-05-07 15:18:39 GMT 29.924744 -95.586761 2,775 291 231 -64
2020-05-07 15:18:36 GMT 29.923452 -95.582809 2,800 284 231 0
2020-05-07 15:18:26 GMT 29.921768 -95.570335 2,775 274 228 -64
2020-05-07 15:18:20 GMT 29.921402 -95.563713 2,800 274 227 0
2020-05-07 15:18:15 GMT 29.921078 -95.557541 2,800 274 226 0
2020-05-07 15:18:09 GMT 29.920612 -95.549469 2,800 274 226 64
2020-05-07 15:18:06 GMT 29.920212 -95.542114 2,775 274 226 128
2020-05-07 15:18:02 GMT 29.920212 -95.542114 2,775 274 226 192
2020-05-07 15:17:58 GMT 29.919914 -95.536453 2,775 273 227 -64
2020-05-07 15:17:53 GMT 29.919617 -95.529083 2,775 273 229 0
2020-05-07 15:17:47 GMT 29.919479 -95.524078 2,775 272 232 64
2020-05-07 15:17:42 GMT 29.919205 -95.516968 2,775 272 233 64
2020-05-07 15:17:39 GMT 29.919123 -95.513870 2,775 272 234 64
2020-05-07 15:17:35 GMT 29.918983 -95.507889 2,775 271 237 -64
2020-05-07 15:17:31 GMT 29.918930 -95.504097 2,775 271 238 -64
2020-05-07 15:17:28 GMT 29.918884 -95.500168 2,775 271 240 -320
2020-05-07 15:17:24 GMT 29.918747 -95.493378 2,850 271 241 -960
2020-05-07 15:17:18 GMT 29.918655 -95.487076 2,925 270 240 -1152
2020-05-07 15:17:14 GMT 29.918655 -95.481476 3,000 267 240 -896
2020-05-07 15:17:11 GMT 29.918839 -95.477493 3,050 263 239 -1088
2020-05-07 15:17:06 GMT 29.919636 -95.471794 3,150 255 236 -1280
2020-05-07 15:17:03 GMT 29.920938 -95.466743 3,225 248 233 -1280
2020-05-07 15:17:00 GMT 29.922043 -95.463921 3,300 242 230 -1152
2020-05-07 15:16:54 GMT 29.925594 -95.457458 3,400 231 225 -960
2020-05-07 15:16:51 GMT 29.926666 -95.455948 3,425 227 224 -960
2020-05-07 15:16:47 GMT 29.929785 -95.452408 3,500 215 220 -1024
2020-05-07 15:16:43 GMT 29.933716 -95.449112 3,600 205 218 -960
2020-05-07 15:16:40 GMT 29.936907 -95.447189 3,625 203 217 -896
2020-05-07 15:16:35 GMT 29.941040 -95.445396 3,700 193 216 -896
2020-05-07 15:16:32 GMT 29.943981 -95.444603 3,775 187 216 -1088
2020-05-07 15:16:28 GMT 29.947287 -95.444107 3,800 186 217 -1152
2020-05-07 15:16:24 GMT 29.951662 -95.443726 3,875 184 218 -1024
2020-05-07 15:16:19 GMT 29.957199 -95.443352 3,950 182 217 -768
2020-05-07 15:16:16 GMT 29.959854 -95.443237 4,000 176 215 -896
2020-05-07 15:16:12 GMT 29.964706 -95.443512 4,075 170 214 -1152
2020-05-07 15:16:09 GMT 29.968283 -95.444221 4,150 161 214 -1088
2020-05-07 15:16:04 GMT 29.972054 -95.445595 4,200 153 215 -1024
2020-05-07 15:16:01 GMT 29.974823 -95.447067 4,250 147 216 -960
2020-05-07 15:15:58 GMT 29.977592 -95.448997 4,300 141 217 -896
2020-05-07 15:15:52 GMT 29.981876 -95.453171 4,375 133 219 -832
2020-05-07 15:15:48 GMT 29.985228 -95.457680 4,450 122 224 -832
2020-05-07 15:15:43 GMT 29.987411 -95.461823 4,525 114 227 -896
2020-05-07 15:15:40 GMT 29.988876 -95.465431 4,575 106 229 -1024
2020-05-07 15:15:37 GMT 29.989883 -95.469040 4,625 101 232 -1088
2020-05-07 15:15:33 GMT 29.990582 -95.472672 4,675 95 234 -1216
2020-05-07 15:15:30 GMT 29.990999 -95.477455 4,750 90 235 -1216
2020-05-07 15:15:27 GMT 29.990982 -95.481689 4,825 88 235 -1088
2020-05-07 15:15:24 GMT 29.990891 -95.484818 4,875 87 235 -960
2020-05-07 15:15:20 GMT 29.990524 -95.495102 4,975 87 235 -960
2020-05-07 15:15:16 GMT 29.990524 -95.495102 5,000 87 235 -896
2020-05-07 15:15:12 GMT 29.990349 -95.500031 5,050 87 236 -960
2020-05-07 15:15:09 GMT 29.990250 -95.503395 5,100 87 236 -960
2020-05-07 15:15:05 GMT 29.990068 -95.508545 5,150 87 236 -1024
2020-05-07 15:15:01 GMT 29.989883 -95.512939 5,225 87 236 -1024
2020-05-07 15:14:58 GMT 29.989746 -95.516701 5,275 87 236 -960
2020-05-07 15:14:55 GMT 29.989557 -95.521011 5,325 86 237 -832
2020-05-07 15:14:52 GMT 29.989380 -95.524780 5,375 84 239 -704
2020-05-07 15:14:49 GMT 29.989105 -95.529465 5,400 82 240 -704
2020-05-07 15:14:44 GMT 29.988556 -95.534416 5,450 77 243 -896
2020-05-07 15:14:41 GMT 29.987686 -95.538834 5,500 70 245 -960
2020-05-07 15:14:38 GMT 29.986530 -95.542770 5,550 67 247 -896
2020-05-07 15:14:35 GMT 29.985031 -95.546913 5,600 66 247 -704
2020-05-07 15:14:32 GMT 29.983932 -95.549927 5,625 65 248 -704
2020-05-07 15:14:28 GMT 29.981876 -95.554962 5,700 62 251 -832
2020-05-07 15:14:23 GMT 29.979630 -95.559784 5,750 56 254 -896
2020-05-07 15:14:20 GMT 29.977314 -95.563698 5,800 51 255 -896
2020-05-07 15:14:17 GMT 29.974869 -95.567215 5,850 45 257 -1024
2020-05-07 15:14:14 GMT 29.971912 -95.570618 5,925 40 258 -1088
2020-05-07 15:14:10 GMT 29.969631 -95.572868 5,975 34 259 -1088
2020-05-07 15:14:07 GMT 29.965118 -95.576530 6,050 30 260 -1024
2020-05-07 15:14:03 GMT 29.961273 -95.579010 6,100 23 261 -960
2020-05-07 15:13:59 GMT 29.957336 -95.580948 6,150 19 261 -896
2020-05-07 15:13:56 GMT 29.952686 -95.582649 6,225 12 262 -960
2020-05-07 15:13:52 GMT 29.948685 -95.583633 6,275 8 262 -1152
2020-05-07 15:13:49 GMT 29.945147 -95.584129 6,325 3 263 -1280
2020-05-07 15:13:46 GMT 29.941095 -95.584404 6,400 1 265 -1152
2020-05-07 15:13:43 GMT 29.938019 -95.584503 6,475 1 265 -1088
2020-05-07 15:13:40 GMT 29.933945 -95.584557 6,525 1 265 -1152
2020-05-07 15:13:36 GMT 29.927765 -95.584717 6,600 1 265 -1216
2020-05-07 15:13:32 GMT 29.923872 -95.584793 6,675 1 264 -1216
2020-05-07 15:13:29 GMT 29.920807 -95.584877 6,750 1 264 -1152
2020-05-07 15:13:26 GMT 29.916656 -95.585007 6,825 1 263 -1088
2020-05-07 15:13:22 GMT 29.911148 -95.585175 6,875 1 263 -1152
2020-05-07 15:13:18 GMT 29.907347 -95.585312 6,950 1 263 -1216
2020-05-07 15:13:13 GMT 29.900894 -95.585541 7,050 1 261 -1344
2020-05-07 15:13:10 GMT 29.897415 -95.585648 7,125 1 260 -1344
2020-05-07 15:13:07 GMT 29.894497 -95.585739 7,175 1 259 -1408
2020-05-07 15:13:03 GMT 29.888865 -95.585953 7,300 1 258 -1408
2020-05-07 15:12:58 GMT 29.882858 -95.586174 7,425 2 256 -1408
2020-05-07 15:12:55 GMT 29.878601 -95.586334 7,500 2 256 -1344
2020-05-07 15:12:51 GMT 29.874107 -95.586548 7,575 2 255 -1216
2020-05-07 15:12:46 GMT 29.869499 -95.586761 7,650 2 254 -1088
2020-05-07 15:12:42 GMT 29.863819 -95.586983 7,750 0 252 -1216
2020-05-07 15:12:36 GMT 29.857727 -95.586815 7,850 356 250 -1280
2020-05-07 15:12:32 GMT 29.852966 -95.586281 7,950 355 251 -1088
2020-05-07 15:12:29 GMT 29.848316 -95.585739 8,000 355 252 -1024
2020-05-07 15:12:25 GMT 29.841801 -95.584984 8,100 355 252 -896
2020-05-07 15:12:21 GMT 29.840172 -95.584824 8,100 355 253 -896
2020-05-07 15:12:15 GMT 29.833282 -95.584068 8,200 355 253 -896
2020-05-07 15:12:12 GMT 29.828979 -95.583641 8,250 355 253 -960
2020-05-07 15:12:06 GMT 29.822062 -95.582886 8,325 355 253 -896
2020-05-07 15:12:03 GMT 29.818197 -95.582397 8,400 352 251 -832
2020-05-07 15:11:59 GMT 29.813965 -95.581795 8,450 349 249 -896
2020-05-07 15:11:55 GMT 29.809570 -95.580635 8,500 343 248 -960
2020-05-07 15:11:52 GMT 29.806234 -95.579437 8,550 339 246 -960
2020-05-07 15:11:49 GMT 29.803301 -95.578094 8,600 332 246 -960
2020-05-07 15:11:46 GMT 29.800089 -95.576317 8,650 329 245 -960
2020-05-07 15:11:43 GMT 29.795527 -95.572975 8,725 321 244 -1088
2020-05-07 15:11:39 GMT 29.793209 -95.570450 9,300 315 245 -704
2020-05-07 15:11:36 GMT 29.790791 -95.567703 9,300 315 245 -704
2020-05-07 15:11:33 GMT 29.788361 -95.564957 9,300 315 245 -704
2020-05-07 15:11:30 GMT 29.785931 -95.562210 9,300 315 245 -544
2020-05-07 15:11:27 GMT 29.783510 -95.559464 9,300 315 245 -544
2020-05-07 15:11:24 GMT 29.781080 -95.556717 9,300 315 245 -544
2020-05-07 15:11:21 GMT 29.778650 -95.553970 9,300 315 245 -544
2020-05-07 15:11:18 GMT 29.776230 -95.551231 9,300 315 245 -544
2020-05-07 15:11:15 GMT 29.773800 -95.548477 9,300 315 245 -544
2020-05-07 15:11:12 GMT 29.771379 -95.545731 9,300 315 245 -544
2020-05-07 15:11:09 GMT 29.768950 -95.542992 9,300 315 247 -544
2020-05-07 15:11:06 GMT 29.766560 -95.540329 9,300 315 247 -544
2020-05-07 15:11:03 GMT 29.764139 -95.537560 9,300 315 247 -544
2020-05-07 15:11:00 GMT 29.761700 -95.534790 9,400 315 247 -544
2020-05-07 15:10:57 GMT 29.759331 -95.532082 9,400 315 249 -544
2020-05-07 15:10:54 GMT 29.756880 -95.529243 9,500 315 249 -544
2020-05-07 15:10:51 GMT 29.754419 -95.526451 9,500 315 249 -544
2020-05-07 15:10:48 GMT 29.752010 -95.523727 9,500 315 251 -544
2020-05-07 15:10:45 GMT 29.749620 -95.520767 9,600 315 250 -544
2020-05-07 15:10:42 GMT 29.747141 -95.517990 9,600 315 250 -544
2020-05-07 15:10:39 GMT 29.742350 -95.512520 9,600 315 250 -544
2020-05-07 15:10:36 GMT 29.742350 -95.512520 9,600 316 253 -544
2020-05-07 15:10:33 GMT 29.739830 -95.509712 9,600 316 253 -544
2020-05-07 15:10:30 GMT 29.737530 -95.506821 9,600 316 253 -544
2020-05-07 15:10:27 GMT 29.734970 -95.504013 9,700 316 257 -32
2020-05-07 15:10:24 GMT 29.732540 -95.501221 9,700 316 257 -32
2020-05-07 15:10:21 GMT 29.730030 -95.498337 9,800 316 257 -32
2020-05-07 15:10:18 GMT 29.727430 -95.495506 9,800 316 257 -32
2020-05-07 15:10:15 GMT 29.724939 -95.492554 9,800 317 257 -32
2020-05-07 15:10:12 GMT 29.722410 -95.489723 9,800 317 257 -32
2020-05-07 15:10:09 GMT 29.719790 -95.486931 9,800 317 258 -32
2020-05-07 15:10:06 GMT 29.717211 -95.484108 9,800 317 258 -32
2020-05-07 15:10:03 GMT 29.714741 -95.481354 9,800 317 258 -32
2020-05-07 15:10:00 GMT 29.712080 -95.478554 9,800 317 260 -32
2020-05-07 15:09:57 GMT 29.709410 -95.475670 9,800 317 259 -32
2020-05-07 15:09:54 GMT 29.706730 -95.472862 9,800 317 258 -32
2020-05-07 15:09:51 GMT 29.704081 -95.470093 9,800 317 258 -32
2020-05-07 15:09:48 GMT 29.701990 -95.467140 9,800 316 256 -32
2020-05-07 15:09:45 GMT 29.699770 -95.464287 9,800 318 263 -32
2020-05-07 15:09:42 GMT 29.697100 -95.461418 9,800 318 263 -32
2020-05-07 15:09:39 GMT 29.694870 -95.458199 9,800 320 264 -32
2020-05-07 15:09:36 GMT 29.692610 -95.454933 9,800 322 264 -32
2020-05-07 15:09:33 GMT 29.689680 -95.452377 9,800 322 264 -32
2020-05-07 15:09:30 GMT 29.687519 -95.449677 9,800 323 276 -160
2020-05-07 15:09:27 GMT 29.681709 -95.444077 9,775 318 258 0
2020-05-07 15:09:24 GMT 29.681709 -95.444077 9,800 321 271 -160
2020-05-07 15:09:21 GMT 29.678579 -95.441559 9,800 316 264 -160
2020-05-07 15:09:18 GMT 29.675770 -95.438850 9,800 316 264 -160
2020-05-07 15:09:15 GMT 29.672689 -95.436600 9,800 307 266 -160
2020-05-07 15:09:12 GMT 29.669081 -95.434036 9,800 296 257 -160
2020-05-07 15:09:09 GMT 29.667231 -95.430527 9,800 296 257 -160
2020-05-07 15:09:06 GMT 29.664339 -95.427650 9,800 286 259 -160
2020-05-07 15:09:03 GMT 29.660931 -95.424606 9,800 286 259 -160
2020-05-07 15:09:00 GMT 29.660490 -95.420441 9,800 276 263 -160
2020-05-07 15:08:57 GMT 29.659479 -95.416489 9,800 275 265 -160
2020-05-07 15:08:54 GMT 29.658979 -95.412613 9,800 274 270 -160
2020-05-07 15:08:51 GMT 29.658680 -95.408333 9,800 274 270 -160
2020-05-07 15:08:48 GMT 29.658409 -95.404068 9,800 274 270 -160
2020-05-07 15:08:45 GMT 29.658260 -95.399597 9,800 274 270 -160
2020-05-07 15:08:42 GMT 29.657930 -95.395401 9,800 275 265 -160
2020-05-07 15:08:39 GMT 29.657560 -95.391113 9,800 275 266 -160
2020-05-07 15:08:36 GMT 29.657301 -95.387230 9,800 275 278 768
2020-05-07 15:08:33 GMT 29.656620 -95.378510 9,800 275 278 768
2020-05-07 15:08:30 GMT 29.656620 -95.378510 9,800 274 284 352
2020-05-07 15:08:27 GMT 29.656260 -95.374001 9,800 274 284 352
2020-05-07 15:08:24 GMT 29.656000 -95.369621 9,800 276 292 352
2020-05-07 15:08:21 GMT 29.655920 -95.365356 9,800 277 310 -160
2020-05-07 15:08:18 GMT 29.655519 -95.360680 9,800 277 311 -160
2020-05-07 15:08:15 GMT 29.655029 -95.355927 9,800 275 309 544
2020-05-07 15:08:12 GMT 29.654850 -95.350594 9,800 274 314 544
2020-05-07 15:08:09 GMT 29.654680 -95.346222 9,900 265 285 -448
2020-05-07 15:08:06 GMT 29.654659 -95.341270 9,900 262 296 -448
2020-05-07 15:08:03 GMT 29.655121 -95.336250 9,900 258 313 -448
2020-05-07 15:08:00 GMT 29.656151 -95.332481 9,900 253 297 -448
2020-05-07 15:07:57 GMT 29.657320 -95.327393 10,100 243 307 -448
2020-05-07 15:07:54 GMT 29.658991 -95.322777 10,200 237 297 -448
2020-05-07 15:07:51 GMT 29.661310 -95.319069 10,200 236 307 -448
2020-05-07 15:07:48 GMT 29.663679 -95.314987 10,200 229 300 -448
2020-05-07 15:07:45 GMT 29.666180 -95.311127 10,200 230 302 -448
2020-05-07 15:07:42 GMT 29.669430 -95.308212 10,350 225 303 -448
2020-05-07 15:07:39 GMT 29.671400 -95.304008 10,350 207 326 -448
2020-05-07 15:07:36 GMT 29.675270 -95.301117 10,375 202 310 1152
2020-05-07 15:07:33 GMT 29.679411 -95.299088 10,375 201 304 1152
2020-05-07 15:07:30 GMT 29.686340 -95.295029 10,325 188 342 -64
2020-05-07 15:07:27 GMT 29.686340 -95.295029 10,325 188 343 -64
2020-05-07 15:07:24 GMT 29.691120 -95.294182 10,325 191 335 -64
2020-05-07 15:07:21 GMT 29.696430 -95.293427 10,325 196 311 -64
2020-05-07 15:07:18 GMT 29.698420 -95.291542 10,350 197 371 -96
2020-05-07 15:07:15 GMT 29.703360 -95.289864 10,350 203 359 160
2020-05-07 15:07:12 GMT 29.708660 -95.288002 10,350 207 345 160
2020-05-07 15:07:09 GMT 29.717640 -95.282860 10,300 212 335 -352
2020-05-07 15:07:06 GMT 29.717640 -95.282860 10,300 213 317 -352
2020-05-07 15:07:03 GMT 29.724930 -95.276344 10,325 214 317 64
2020-05-07 15:07:00 GMT 29.724930 -95.276344 10,325 214 316 -384
2020-05-07 15:06:55 GMT 29.730865 -95.271980 10,375 213 315 -256
2020-05-07 15:06:51 GMT 29.733765 -95.269791 10,375 214 313 192
2020-05-07 15:06:48 GMT 29.737793 -95.266785 10,375 214 313 192
2020-05-07 15:06:42 GMT 29.744644 -95.261429 10,350 215 313 384
2020-05-07 15:06:39 GMT 29.750092 -95.257278 10,350 214 309 -256
2020-05-07 15:06:34 GMT 29.755737 -95.253105 10,375 213 303 -448
2020-05-07 15:06:31 GMT 29.760406 -95.249779 10,400 212 300 -128
2020-05-07 15:06:27 GMT 29.762878 -95.248032 10,400 211 298 128
2020-05-07 15:06:23 GMT 29.768280 -95.244438 10,375 210 296 448
2020-05-07 15:06:20 GMT 29.772446 -95.241798 10,325 209 291 448
2020-05-07 15:06:17 GMT 29.777790 -95.238434 10,275 209 288 576
2020-05-07 15:06:13 GMT 29.780258 -95.236870 10,250 209 285 832
2020-05-07 15:06:10 GMT 29.782700 -95.235352 10,200 209 283 1280
2020-05-07 15:06:07 GMT 29.786728 -95.232819 10,100 208 281 2048
2020-05-07 15:06:00 GMT 29.796158 -95.227379 9,725 206 281 3328
2020-05-07 15:05:56 GMT 29.801147 -95.224686 9,475 204 283 3392
2020-05-07 15:05:50 GMT 29.806700 -95.221901 9,300 203 282 3392
2020-05-07 15:05:47 GMT 29.811682 -95.219582 9,000 201 283 3264
2020-05-07 15:05:42 GMT 29.818338 -95.216728 8,700 200 281 3264
2020-05-07 15:05:39 GMT 29.822155 -95.215218 8,550 199 281 3328
2020-05-07 15:05:35 GMT 29.827652 -95.213120 8,300 198 280 3520
2020-05-07 15:05:19 GMT 29.857889 -95.191193 6,000 127 259 3136
2020-05-07 15:05:16 GMT 29.860060 -95.194489 6,000 127 259 3136
2020-05-07 15:05:13 GMT 29.862240 -95.197792 6,000 127 259 3136
2020-05-07 15:05:10 GMT 29.864420 -95.201088 6,000 127 259 3136
2020-05-07 15:05:07 GMT 29.866600 -95.204391 6,000 127 259 3136
2020-05-07 15:05:04 GMT 29.868780 -95.207687 6,000 127 259 3136
2020-05-07 15:05:01 GMT 29.870960 -95.210991 6,000 127 259 3136
2020-05-07 15:04:58 GMT 29.873131 -95.214287 6,000 127 259 3136
2020-05-07 15:04:55 GMT 29.875311 -95.217590 6,000 127 259 3136
2020-05-07 15:04:52 GMT 29.877502 -95.222260 6,000 127 259 3136
2020-05-07 15:04:49 GMT 29.879650 -95.224274 6,000 127 259 3680
2020-05-07 15:04:46 GMT 29.881830 -95.227562 6,000 127 259 3680
2020-05-07 15:04:43 GMT 29.883930 -95.231056 5,700 127 257 3680
2020-05-07 15:04:40 GMT 29.886120 -95.234306 5,700 127 257 3680
2020-05-07 15:04:37 GMT 29.888321 -95.237762 5,200 128 253 3680
2020-05-07 15:04:34 GMT 29.890587 -95.241714 5,200 128 253 3680
2020-05-07 15:04:31 GMT 29.892570 -95.244133 4,900 128 252 3680
2020-05-07 15:04:28 GMT 29.894859 -95.247429 4,900 128 252 3680
2020-05-07 15:04:25 GMT 29.897160 -95.250610 4,900 128 252 3680
2020-05-07 15:04:22 GMT 29.899300 -95.253769 4,300 127 251 3680
2020-05-07 15:04:19 GMT 29.901440 -95.256943 4,300 127 250 3680
2020-05-07 15:04:16 GMT 29.903749 -95.260139 3,700 127 248 3680
2020-05-07 15:04:13 GMT 29.905849 -95.263283 3,700 127 248 3680
2020-05-07 15:04:10 GMT 29.908039 -95.266518 3,700 127 245 3680
2020-05-07 15:04:07 GMT 29.910299 -95.269890 3,500 127 239 3680
2020-05-07 15:04:04 GMT 29.912310 -95.272942 3,500 127 239 3680
2020-05-07 15:04:01 GMT 29.914270 -95.276047 2,900 128 239 3680
2020-05-07 15:03:58 GMT 29.916241 -95.279053 2,900 128 242 3680
2020-05-07 15:03:55 GMT 29.918360 -95.282082 2,900 128 242 3680
2020-05-07 15:03:52 GMT 29.920380 -95.285027 2,900 127 241 3680
2020-05-07 15:03:49 GMT 29.922520 -95.288139 2,500 127 244 2400
2020-05-07 15:03:46 GMT 29.924620 -95.291260 2,500 127 237 2400
2020-05-07 15:03:43 GMT 29.926630 -95.294258 2,500 127 236 2400
2020-05-07 15:03:40 GMT 29.928610 -95.297211 2,300 127 235 2400
2020-05-07 15:03:37 GMT 29.930590 -95.300140 2,000 127 223 2400
2020-05-07 15:03:34 GMT 29.932560 -95.303032 2,000 127 223 2400
2020-05-07 15:03:31 GMT 29.934420 -95.305847 2,000 127 220 2400
2020-05-07 15:03:28 GMT 29.936251 -95.308670 1,900 126 215 2400
2020-05-07 15:03:25 GMT 29.938000 -95.311378 1,775 126 212 2400
2020-05-07 15:03:22 GMT 29.939779 -95.314110 1,700 124 208 2400
2020-05-07 15:03:19 GMT 29.941429 -95.316818 1,600 123 199 2400
2020-05-07 15:03:16 GMT 29.942970 -95.319481 1,550 123 195 2400
2020-05-07 15:03:13 GMT 29.944521 -95.322090 1,475 123 185 2400
2020-05-07 15:03:10 GMT 29.947371 -95.326958 1,300 120 183 2400
2020-05-07 15:03:07 GMT 29.947371 -95.326958 1,250 120 183 2400
2020-05-07 15:03:04 GMT 29.948700 -95.329460 1,025 123 178 2400
2020-05-07 15:03:01 GMT 29.950090 -95.331772 1,025 127 176 2400
2020-05-07 15:02:58 GMT 29.951639 -95.333946 725 135 172 2400
2020-05-07 15:02:55 GMT 29.953300 -95.335907 725 144 174 2400
2020-05-07 15:02:52 GMT 29.955210 -95.337532 600 147 175 0
2020-05-07 15:02:49 GMT 29.957270 -95.339119 600 148 178 0
2020-05-07 15:02:46 GMT 29.959370 -95.340393 375 151 171 0
2020-05-07 15:02:43 GMT 29.961460 -95.341728 175 152 174 0
2020-05-07 15:02:40 GMT 29.963579 -95.343040 -50 152 175 0
2020-05-07 15:02:37 GMT 29.965731 -95.344353 -50 152 178 0
2020-05-07 15:02:34 GMT 29.967831 -95.345612 -100 151 180 0
2020-05-07 15:02:31 GMT 29.970020 -95.346947 -100 152 165 0
2020-05-07 15:02:28 GMT 29.972071 -95.348183 -100 152 161 0
2020-05-07 15:02:25 GMT 29.974039 -95.349358 -100 152 154 0
2020-05-07 15:02:22 GMT 29.975861 -95.350449 -100 151 143 0
2020-05-07 15:02:19 GMT 29.977591 -95.351547 -100 151 133 0
2020-05-07 15:02:16 GMT 29.979139 -95.352493 -100 151 123 -32
2020-05-07 15:02:13 GMT 29.981920 -95.354240 -100 152 105 -32
2020-05-07 15:02:10 GMT 29.981920 -95.354240 0 152 97 -32
2020-05-07 15:02:07 GMT 29.983101 -95.354950 0 153 93 -32
2020-05-07 15:02:04 GMT 29.984159 -95.355553 0 150 73 0
2020-05-07 15:02:01 GMT 29.984989 -95.356049 0 153 58 0
2020-05-07 15:01:58 GMT 29.985750 -95.356590 0 152 44 0
2020-05-07 15:01:55 GMT 29.986300 -95.356918 0 154 33 0
2020-05-07 15:01:52 GMT 29.986660 -95.357117 0 153 18 0
2020-05-07 15:01:49 GMT 29.986860 -95.357239 0 189 9 0
2020-05-07 15:01:46 GMT 29.987020 -95.357300 0 185 8 0
2020-05-07 15:01:43 GMT 29.987129 -95.357300 0 204 7 0
2020-05-07 15:01:40 GMT 29.987209 -95.357193 0 215 4 0
2020-05-07 15:01:37 GMT 29.987209 -95.357193 0 221 6 0
2020-05-07 15:01:34 GMT 29.987280 -95.357147 0 231 3 0
2020-05-07 15:01:31 GMT 29.987280 -95.357132 0 234 3 0
2020-05-07 15:01:28 GMT 29.987310 -95.357010 0 227 5 0
2020-05-07 15:01:25 GMT 29.987310 -95.357010 0 230 0 0
2020-05-07 15:01:22 GMT 29.987341 -95.356972 0 230 3 0
2020-05-07 15:01:19 GMT 29.987370 -95.356949 0 234 2 0
2020-05-07 15:01:16 GMT 29.987391 -95.356903 0 240 4 0
2020-05-07 15:01:13 GMT 29.987410 -95.356857 0 247 4 0
2020-05-07 15:01:10 GMT 29.987440 -95.356781 0 243 4 0
2020-05-07 15:01:07 GMT 29.987520 -95.356667 0 235 5 0
2020-05-07 15:01:04 GMT 29.987520 -95.356667 0 250 4 0
2020-05-07 15:01:01 GMT 29.987511 -95.356613 0 231 2 0
2020-05-07 15:00:58 GMT 29.987551 -95.356529 0 229 2 0
2020-05-07 15:00:55 GMT 29.987539 -95.356491 0 229 4 0
2020-05-07 15:00:52 GMT 29.987600 -95.356461 0 229 1 0
2020-05-07 15:00:49 GMT 29.987619 -95.356461 0 229 2 0
2020-05-07 15:00:46 GMT 29.987591 -95.356438 0 229 1 0
2020-05-07 15:00:43 GMT 29.987619 -95.356392 0 229 0 0
2020-05-07 15:00:40 GMT 29.987640 -95.356369 0 229 1 0
2020-05-07 15:00:37 GMT 29.987610 -95.356438 0 229 0 0
2020-05-07 15:00:34 GMT 29.987579 -95.356453 0 229 1 0
2020-05-07 15:00:31 GMT 29.987579 -95.356468 0 229 0 0
2020-05-07 15:00:28 GMT 29.987619 -95.356407 0 229 1 0
2020-05-07 15:00:25 GMT 29.987631 -95.356369 0 229 0 0
2020-05-07 15:00:22 GMT 29.987619 -95.356422 0 229 0 0
2020-05-07 15:00:19 GMT 29.987600 -95.356461 0 229 1 0
2020-05-07 15:00:16 GMT 29.987570 -95.356461 0 229 1 0
2020-05-07 15:00:13 GMT 29.987579 -95.356468 0 229 0 0
2020-05-07 15:00:10 GMT 29.987600 -95.356430 0 229 1 0
2020-05-07 15:00:07 GMT 29.987619 -95.356407 0 229 0 0
2020-05-07 15:00:04 GMT 29.987631 -95.356453 0 229 0 0
2020-05-07 15:00:01 GMT 29.987631 -95.356422 0 229 1 0
2020-05-07 14:59:58 GMT 29.987579 -95.356453 0 229 1 0
2020-05-07 14:59:55 GMT 29.987610 -95.356483 0 229 3 0
2020-05-07 14:59:52 GMT 29.987570 -95.356453 0 229 2 0
2020-05-07 14:59:49 GMT 29.987579 -95.356453 0 229 1 0
2020-05-07 14:59:46 GMT 29.987600 -95.356430 0 229 0 0
2020-05-07 14:59:43 GMT 29.987591 -95.356461 0 229 0 0
2020-05-07 14:59:40 GMT 29.987591 -95.356461 0 229 0 0
2020-05-07 14:59:37 GMT 29.987600 -95.356438 0 229 0 0
2020-05-07 14:59:34 GMT 29.987579 -95.356453 0 229 0 0
2020-05-07 14:59:31 GMT 29.987619 -95.356377 0 229 0 0
2020-05-07 14:59:28 GMT 29.987591 -95.356461 0 229 0 0
2020-05-07 14:59:25 GMT 29.987600 -95.356461 0 229 1 0
2020-05-07 14:59:22 GMT 29.987600 -95.356422 0 229 1 0
2020-05-07 14:59:19 GMT 29.987610 -95.356461 0 229 0 0
2020-05-07 14:59:16 GMT 29.987591 -95.356438 0 229 0 0
2020-05-07 14:59:13 GMT 29.987600 -95.356453 0 229 0 0
2020-05-07 14:59:10 GMT 29.987610 -95.356453 0 229 1 0
2020-05-07 14:59:07 GMT 29.987591 -95.356461 0 229 0 0
2020-05-07 14:59:04 GMT 29.987610 -95.356438 0 229 1 0
2020-05-07 14:59:01 GMT 29.987600 -95.356438 0 229 0 0
2020-05-07 14:58:58 GMT 29.987600 -95.356453 0 229 0 0
2020-05-07 14:58:55 GMT 29.987610 -95.356461 0 229 1 0
2020-05-07 14:58:52 GMT 29.987600 -95.356461 0 229 2 0
2020-05-07 14:58:49 GMT 29.987610 -95.356430 0 229 1 0
2020-05-07 14:58:46 GMT 29.987570 -95.356453 0 229 3 0
2020-05-07 14:58:43 GMT 29.987610 -95.356453 0 229 0 0
2020-05-07 14:58:40 GMT 29.987600 -95.356430 0 230 0 0
2020-05-07 14:58:37 GMT 29.987600 -95.356438 0 230 0 0
2020-05-07 14:58:34 GMT 29.987610 -95.356422 0 230 0 0
2020-05-07 14:58:31 GMT 29.987610 -95.356407 0 230 3 0
2020-05-07 14:58:28 GMT 29.987619 -95.356407 0 230 0 0
2020-05-07 14:58:25 GMT 29.987610 -95.356430 0 232 1 0
2020-05-07 14:58:22 GMT 29.987619 -95.356361 0 239 3 0
2020-05-07 14:58:19 GMT 29.987619 -95.356331 0 230 2 0
2020-05-07 14:58:16 GMT 29.987671 -95.356331 0 230 3 0
2020-05-07 14:58:13 GMT 29.987659 -95.356293 0 231 2 0
2020-05-07 14:58:10 GMT 29.987690 -95.356247 0 237 0 0
2020-05-07 14:58:07 GMT 29.987711 -95.356270 0 246 5 0
2020-05-07 14:58:04 GMT 29.987690 -95.356178 0 217 4 0
2020-05-07 14:58:01 GMT 29.987770 -95.356163 0 225 4 0
2020-05-07 14:57:58 GMT 29.987749 -95.356117 0 228 2 0
2020-05-07 14:57:55 GMT 29.987801 -95.356087 0 233 4 0
2020-05-07 14:57:52 GMT 29.987810 -95.356041 0 230 1 0
2020-05-07 14:57:49 GMT 29.987810 -95.356018 0 242 4 0
2020-05-07 14:57:46 GMT 29.987841 -95.355980 0 255 5 0
2020-05-07 14:57:43 GMT 29.987850 -95.355904 0 241 5 0
2020-05-07 14:57:40 GMT 29.987890 -95.355850 0 271 4 0
2020-05-07 14:57:37 GMT 29.987860 -95.355789 0 244 2 0
2020-05-07 14:57:34 GMT 29.987869 -95.355751 0 279 3 0
2020-05-07 14:57:31 GMT 29.987860 -95.355713 0 273 3 0
2020-05-07 14:57:28 GMT 29.987820 -95.355667 0 299 4 0
2020-05-07 14:57:25 GMT 29.987801 -95.355621 0 313 2 0
2020-05-07 14:57:22 GMT 29.987770 -95.355637 0 307 2 0
2020-05-07 14:57:19 GMT 29.987761 -95.355629 0 305 3 0
2020-05-07 14:57:16 GMT 29.987680 -95.355621 0 328 1 0
2020-05-07 14:57:13 GMT 29.987700 -95.355598 0 329 3 0
2020-05-07 14:57:10 GMT 29.987690 -95.355583 0 329 3 0
2020-05-07 14:57:07 GMT 29.987619 -95.355568 0 329 0 0
2020-05-07 14:57:04 GMT 29.987619 -95.355568 0 329 1 0
2020-05-07 14:57:00 GMT 29.987631 -95.355568 0 329 1 0
2020-05-07 14:56:57 GMT 29.987619 -95.355553 0 329 1 0
2020-05-07 14:56:54 GMT 29.987610 -95.355560 0 329 1 0
2020-05-07 14:56:51 GMT 29.987610 -95.355537 0 329 1 0
2020-05-07 14:56:48 GMT 29.987579 -95.355568 0 329 2 0
2020-05-07 14:56:45 GMT 29.987579 -95.355522 0 329 0 0
2020-05-07 14:56:42 GMT 29.987600 -95.355537 0 329 1 0
2020-05-07 14:56:39 GMT 29.987579 -95.355537 0 329 1 0
2020-05-07 14:56:36 GMT 29.987579 -95.355507 0 329 1 0
2020-05-07 14:56:33 GMT 29.987570 -95.355522 0 329 1 0
2020-05-07 14:56:30 GMT 29.987570 -95.355507 0 329 1 0
2020-05-07 14:56:27 GMT 29.987551 -95.355499 0 329 0 0
2020-05-07 14:56:24 GMT 29.987511 -95.355507 0 329 1 0
2020-05-07 14:56:21 GMT 29.987520 -95.355492 0 329 1 0
2020-05-07 14:56:18 GMT 29.987490 -95.355476 0 329 2 0
2020-05-07 14:56:14 GMT 29.987480 -95.355476 0 329 2 0
2020-05-07 14:56:11 GMT 29.987480 -95.355461 0 329 2 0
2020-05-07 14:56:08 GMT 29.987459 -95.355461 0 329 3 0
2020-05-07 14:56:05 GMT 29.987410 -95.355453 0 329 1 0
2020-05-07 14:56:02 GMT 29.987391 -95.355438 0 329 1 0
2020-05-07 14:55:59 GMT 29.987400 -95.355431 0 329 1 0
2020-05-07 14:55:56 GMT 29.987379 -95.355408 0 329 2 0
2020-05-07 14:55:53 GMT 29.987360 -95.355400 0 329 3 0
2020-05-07 14:55:50 GMT 29.987329 -95.355370 0 329 2 0
2020-05-07 14:55:47 GMT 29.987301 -95.355377 0 329 4 0
2020-05-07 14:55:44 GMT 29.987280 -95.355324 0 329 3 0
2020-05-07 14:55:41 GMT 29.987240 -95.355324 0 329 3 0
2020-05-07 14:55:38 GMT 29.987209 -95.355301 0 329 3 0
2020-05-07 14:55:35 GMT 29.987181 -95.355270 0 330 2 0
2020-05-07 14:55:32 GMT 29.987150 -95.355278 0 330 3 0
2020-05-07 14:55:29 GMT 29.987120 -95.355186 0 330 1 0
2020-05-07 14:55:26 GMT 29.987110 -95.355232 0 337 4 0
2020-05-07 14:55:23 GMT 29.987061 -95.355240 0 317 6 0
2020-05-07 14:55:20 GMT 29.987020 -95.355141 0 329 3 0
2020-05-07 14:55:17 GMT 29.986980 -95.355148 0 329 1 0
2020-05-07 14:55:14 GMT 29.986950 -95.355133 0 334 3 0
2020-05-07 14:55:11 GMT 29.986919 -95.355118 0 329 3 0
2020-05-07 14:55:08 GMT 29.986870 -95.355080 0 329 3 0
2020-05-07 14:55:05 GMT 29.986860 -95.355103 0 329 3 0
2020-05-07 14:55:02 GMT 29.986799 -95.355087 0 329 2 0
2020-05-07 14:54:59 GMT 29.986780 -95.355049 0 329 1 0
2020-05-07 14:54:56 GMT 29.986691 -95.354980 0 329 1 0
2020-05-07 14:54:53 GMT 29.986740 -95.355003 0 329 2 0
2020-05-07 14:54:50 GMT 29.986740 -95.355003 0 329 1 0
2020-05-07 14:54:47 GMT 29.986650 -95.354980 0 329 1 0
2020-05-07 14:54:44 GMT 29.986650 -95.354958 0 329 2 0
2020-05-07 14:54:41 GMT 29.986650 -95.354958 0 329 0 0
2020-05-07 14:54:38 GMT 29.986670 -95.354988 0 329 1 0
2020-05-07 14:54:35 GMT 29.986650 -95.354950 0 329 1 0
2020-05-07 14:54:32 GMT 29.986691 -95.354988 0 329 1 0
2020-05-07 14:54:29 GMT 29.986700 -95.355011 0 329 1 0
2020-05-07 14:54:26 GMT 29.986691 -95.355011 0 329 0 0
2020-05-07 14:54:23 GMT 29.986700 -95.354973 0 329 1 0
2020-05-07 14:54:20 GMT 29.986700 -95.354988 0 329 1 0
2020-05-07 14:54:17 GMT 29.986679 -95.354980 0 329 1 0
2020-05-07 14:54:14 GMT 29.986710 -95.355011 0 329 0 0
2020-05-07 14:54:11 GMT 29.986700 -95.355019 0 329 0 0
2020-05-07 14:54:08 GMT 29.986691 -95.355011 0 329 1 0
2020-05-07 14:54:05 GMT 29.986650 -95.354980 0 329 1 0
2020-05-07 14:54:02 GMT 29.986650 -95.354942 0 329 2 0
2020-05-07 14:53:59 GMT 29.986691 -95.355011 0 329 0 0
2020-05-07 14:53:56 GMT 29.986691 -95.355011 0 329 1 0
2020-05-07 14:53:53 GMT 29.986710 -95.355019 0 329 1 0
2020-05-07 14:53:50 GMT 29.986691 -95.354988 0 329 0 0
2020-05-07 14:53:47 GMT 29.986691 -95.355003 0 329 1 0
2020-05-07 14:53:44 GMT 29.986691 -95.355003 0 329 1 0
2020-05-07 14:53:41 GMT 29.986719 -95.355011 0 329 2 0
2020-05-07 14:53:38 GMT 29.986700 -95.355011 0 329 0 0
2020-05-07 14:53:34 GMT 29.986710 -95.355011 0 329 0 0
2020-05-07 14:53:30 GMT 29.986700 -95.355011 0 329 0 0
2020-05-07 14:53:27 GMT 29.986710 -95.355011 0 329 0 0
2020-05-07 14:53:24 GMT 29.986691 -95.355019 0 329 1 0
2020-05-07 14:53:21 GMT 29.986710 -95.355011 0 329 0 0
2020-05-07 14:53:18 GMT 29.986691 -95.355026 0 329 1 0
2020-05-07 14:53:15 GMT 29.986700 -95.355011 0 329 1 0
2020-05-07 14:53:12 GMT 29.986710 -95.355003 0 329 0 0
2020-05-07 14:53:09 GMT 29.986691 -95.355011 0 329 2 0
2020-05-07 14:53:06 GMT 29.986679 -95.354973 0 329 1 0
2020-05-07 14:53:03 GMT 29.986679 -95.355011 0 329 1 0
2020-05-07 14:53:00 GMT 29.986650 -95.355011 0 328 2 0
2020-05-07 14:52:57 GMT 29.986610 -95.354988 0 330 1 0
2020-05-07 14:52:54 GMT 29.986629 -95.354919 0 330 2 0
2020-05-07 14:52:51 GMT 29.986570 -95.354927 0 332 4 0
2020-05-07 14:52:48 GMT 29.986549 -95.354897 0 330 1 0
2020-05-07 14:52:45 GMT 29.986530 -95.354881 0 330 3 0
2020-05-07 14:52:42 GMT 29.986540 -95.354897 0 331 1 0
2020-05-07 14:52:39 GMT 29.986469 -95.354858 0 318 2 0
2020-05-07 14:52:36 GMT 29.986429 -95.354874 0 313 5 0
2020-05-07 14:52:33 GMT 29.986380 -95.354790 0 335 4 0
2020-05-07 14:52:30 GMT 29.986271 -95.354782 0 314 6 0
2020-05-07 14:52:27 GMT 29.986271 -95.354782 0 311 6 0
2020-05-07 14:52:24 GMT 29.986240 -95.354713 0 322 5 0
2020-05-07 14:52:21 GMT 29.986200 -95.354660 0 314 4 0
2020-05-07 14:52:18 GMT 29.986040 -95.354584 0 321 6 0
2020-05-07 14:52:15 GMT 29.986040 -95.354584 0 332 3 0
2020-05-07 14:52:12 GMT 29.986010 -95.354561 0 339 5 0
2020-05-07 14:52:09 GMT 29.985950 -95.354530 0 334 5 0
2020-05-07 14:52:06 GMT 29.985920 -95.354492 0 335 5 0
2020-05-07 14:52:03 GMT 29.985849 -95.354446 0 332 5 0
2020-05-07 14:52:00 GMT 29.985809 -95.354431 0 329 5 0
2020-05-07 14:51:57 GMT 29.985760 -95.354393 0 330 1 0
2020-05-07 14:51:54 GMT 29.985720 -95.354378 0 332 3 0
2020-05-07 14:51:51 GMT 29.985649 -95.354370 0 331 6 0
2020-05-07 14:51:48 GMT 29.985640 -95.354301 0 342 3 0
2020-05-07 14:51:45 GMT 29.985571 -95.354286 0 328 3 0
2020-05-07 14:51:42 GMT 29.985540 -95.354271 0 327 4 0
2020-05-07 14:51:39 GMT 29.985491 -95.354240 0 325 3 0
2020-05-07 14:51:36 GMT 29.985460 -95.354172 0 1 5 0
2020-05-07 14:51:33 GMT 29.985390 -95.354187 0 321 6 0
2020-05-07 14:51:30 GMT 29.985300 -95.354111 0 328 1 0
2020-05-07 14:51:27 GMT 29.985310 -95.354111 0 328 4 0
2020-05-07 14:51:24 GMT 29.985241 -95.354088 0 329 3 0
2020-05-07 14:51:21 GMT 29.985189 -95.354073 0 330 3 0
2020-05-07 14:51:18 GMT 29.985170 -95.354042 0 325 4 0
2020-05-07 14:51:15 GMT 29.985121 -95.353996 0 316 5 0
2020-05-07 14:51:12 GMT 29.985081 -95.353996 0 334 3 0
2020-05-07 14:51:09 GMT 29.985041 -95.353973 0 329 4 0
2020-05-07 14:51:06 GMT 29.984989 -95.353958 0 326 5 0
2020-05-07 14:51:03 GMT 29.984921 -95.353897 0 324 5 0
2020-05-07 14:51:00 GMT 29.984900 -95.353882 0 337 4 0
2020-05-07 14:50:57 GMT 29.984840 -95.353859 0 335 5 0
2020-05-07 14:50:54 GMT 29.984760 -95.353798 0 336 4 0
2020-05-07 14:50:51 GMT 29.984760 -95.353798 0 326 5 0
2020-05-07 14:50:48 GMT 29.984680 -95.353737 0 329 1 0
2020-05-07 14:50:45 GMT 29.984680 -95.353760 0 329 2 0
2020-05-07 14:50:42 GMT 29.984640 -95.353699 0 326 5 0
2020-05-07 14:50:39 GMT 29.984591 -95.353752 0 308 4 0
2020-05-07 14:50:36 GMT 29.984560 -95.353683 0 330 3 0
2020-05-07 14:50:33 GMT 29.984550 -95.353638 0 338 4 0
2020-05-07 14:50:30 GMT 29.984470 -95.353638 0 329 2 0
2020-05-07 14:50:27 GMT 29.984449 -95.353630 0 321 3 0
2020-05-07 14:50:24 GMT 29.984421 -95.353600 0 330 5 0
2020-05-07 14:50:21 GMT 29.984320 -95.353539 0 330 3 0
2020-05-07 14:50:18 GMT 29.984320 -95.353539 0 330 2 0
2020-05-07 14:50:15 GMT 29.984310 -95.353523 0 333 3 0
2020-05-07 14:50:12 GMT 29.984230 -95.353477 0 328 4 0
2020-05-07 14:50:09 GMT 29.984230 -95.353477 0 330 5 0
2020-05-07 14:50:06 GMT 29.984180 -95.353447 0 319 5 0
2020-05-07 14:50:03 GMT 29.984100 -95.353394 0 329 5 0
2020-05-07 14:50:00 GMT 29.984079 -95.353371 0 331 4 0
2020-05-07 14:49:57 GMT 29.984051 -95.353363 0 334 4 0
2020-05-07 14:49:54 GMT 29.983990 -95.353333 0 336 4 0
2020-05-07 14:49:51 GMT 29.983950 -95.353333 0 327 6 0
2020-05-07 14:49:48 GMT 29.983879 -95.353271 0 327 5 0
2020-05-07 14:49:45 GMT 29.983820 -95.353233 0 319 5 0
2020-05-07 14:49:42 GMT 29.983749 -95.353188 0 320 5 0
2020-05-07 14:49:39 GMT 29.983641 -95.353119 0 347 6 0
2020-05-07 14:49:36 GMT 29.983641 -95.353119 0 332 6 0
2020-05-07 14:49:33 GMT 29.983570 -95.353081 0 343 2 0
2020-05-07 14:49:30 GMT 29.983580 -95.353043 0 348 8 0
2020-05-07 14:49:27 GMT 29.983440 -95.352997 0 334 4 0
2020-05-07 14:49:24 GMT 29.983440 -95.352997 0 330 5 0
2020-05-07 14:49:21 GMT 29.983370 -95.352989 0 321 3 0
2020-05-07 14:49:18 GMT 29.983339 -95.352928 0 314 5 0
2020-05-07 14:49:15 GMT 29.983311 -95.352867 0 319 4 0
2020-05-07 14:49:12 GMT 29.983240 -95.352890 0 318 5 0
2020-05-07 14:49:09 GMT 29.983191 -95.352821 0 334 4 0
2020-05-07 14:49:06 GMT 29.983089 -95.352768 0 332 3 0
2020-05-07 14:49:03 GMT 29.983089 -95.352768 0 335 1 0
2020-05-07 14:49:00 GMT 29.983101 -95.352783 0 332 6 0
2020-05-07 14:48:57 GMT 29.983030 -95.352737 0 333 2 0
2020-05-07 14:48:54 GMT 29.982990 -95.352760 0 300 5 0
2020-05-07 14:48:51 GMT 29.982950 -95.352669 0 329 3 0
2020-05-07 14:48:48 GMT 29.982920 -95.352631 0 341 4 0
2020-05-07 14:48:45 GMT 29.982880 -95.352631 0 334 5 0
2020-05-07 14:48:42 GMT 29.982809 -95.352577 0 333 6 0
2020-05-07 14:48:39 GMT 29.982740 -95.352547 0 333 6 0
2020-05-07 14:48:36 GMT 29.982651 -95.352493 0 329 5 0
2020-05-07 14:48:33 GMT 29.982599 -95.352470 0 340 5 0
2020-05-07 14:48:30 GMT 29.982510 -95.352409 0 331 4 0
2020-05-07 14:48:27 GMT 29.982470 -95.352348 0 344 4 0
2020-05-07 14:48:24 GMT 29.982441 -95.352371 0 323 2 0
2020-05-07 14:48:21 GMT 29.982361 -95.352333 0 347 2 0
2020-05-07 14:48:18 GMT 29.982269 -95.352257 0 350 1 0
2020-05-07 14:48:15 GMT 29.982241 -95.352249 0 350 0 0
2020-05-07 14:48:12 GMT 29.982229 -95.352242 0 351 0 0
2020-05-07 14:48:09 GMT 29.982241 -95.352249 0 351 0 0
2020-05-07 14:48:06 GMT 29.982269 -95.352272 0 351 0 0
2020-05-07 14:48:03 GMT 29.982241 -95.352249 0 351 0 0
2020-05-07 14:48:00 GMT 29.982241 -95.352249 0 351 0 0
2020-05-07 14:47:57 GMT 29.982220 -95.352272 0 351 0 0
2020-05-07 14:47:54 GMT 29.982260 -95.352249 0 354 0 0
2020-05-07 14:47:51 GMT 29.982241 -95.352242 0 354 0 0
2020-05-07 14:47:46 GMT 29.982250 -95.352249 0 348 0 0
2020-05-07 14:47:43 GMT 29.982241 -95.352257 0 348 0 0
2020-05-07 14:47:40 GMT 29.982281 -95.352249 0 349 1 -160
2020-05-07 14:47:37 GMT 29.982180 -95.352211 0 349 0 -160
2020-05-07 14:47:34 GMT 29.982210 -95.352242 0 349 0 -160
2020-05-07 14:47:31 GMT 29.982189 -95.352226 0 349 0 -160
2020-05-07 14:47:28 GMT 29.982170 -95.352203 0 346 1 -160
2020-05-07 14:47:25 GMT 29.982189 -95.352219 0 345 0 -160
2020-05-07 14:47:21 GMT 29.982201 -95.352219 0 345 0 -160
2020-05-07 14:47:18 GMT 29.982220 -95.352226 0 345 0 -160
2020-05-07 14:47:15 GMT 29.982250 -95.352257 0 344 0 -160
2020-05-07 14:47:12 GMT 29.982260 -95.352249 0 344 0 -160
2020-05-07 14:47:09 GMT 29.982250 -95.352242 0 344 1 -160
2020-05-07 14:47:06 GMT 29.982241 -95.352249 0 344 0 -160
2020-05-07 14:47:03 GMT 29.982241 -95.352272 0 343 0 -160
2020-05-07 14:47:00 GMT 29.982250 -95.352242 0 343 0 -160
2020-05-07 14:46:57 GMT 29.982241 -95.352257 0 341 0 -160
2020-05-07 14:46:51 GMT 29.982250 -95.352257 0 341 0 -160
2020-05-07 14:46:47 GMT 29.982250 -95.352249 0 341 0 -160
2020-05-07 14:46:44 GMT 29.982241 -95.352242 0 343 0 -160
2020-05-07 14:46:41 GMT 29.982210 -95.352242 0 342 0 -160
2020-05-07 14:46:38 GMT 29.982210 -95.352242 0 342 1 -160
2020-05-07 14:46:35 GMT 29.982241 -95.352226 0 341 0 -160
2020-05-07 14:46:32 GMT 29.982210 -95.352219 0 343 3 -160
2020-05-07 14:46:29 GMT 29.982170 -95.352226 0 328 3 -160
2020-05-07 14:46:26 GMT 29.982130 -95.352219 0 321 3 -160
2020-05-07 14:46:23 GMT 29.982109 -95.352211 0 320 3 -160
2020-05-07 14:46:20 GMT 29.982040 -95.352150 0 315 3 -160
2020-05-07 14:46:17 GMT 29.982040 -95.352150 0 297 5 -160
2020-05-07 14:46:14 GMT 29.981979 -95.352119 0 278 4 -160
2020-05-07 14:46:11 GMT 29.981960 -95.352043 0 262 2 -160
2020-05-07 14:46:08 GMT 29.981979 -95.352013 0 265 5 -160
2020-05-07 14:46:05 GMT 29.981979 -95.351921 0 223 5 -160
2020-05-07 14:46:02 GMT 29.982000 -95.351868 0 237 7 -160
2020-05-07 14:45:59 GMT 29.982050 -95.351761 0 246 6 -160
2020-05-07 14:45:56 GMT 29.982100 -95.351700 0 248 6 -160
2020-05-07 14:45:53 GMT 29.982130 -95.351624 0 242 6 -160
2020-05-07 14:45:50 GMT 29.982170 -95.351532 0 246 5 -160
2020-05-07 14:45:47 GMT 29.982180 -95.351440 0 241 7 -160
2020-05-07 14:45:44 GMT 29.982260 -95.351357 0 254 6 -160
2020-05-07 14:45:41 GMT 29.982250 -95.351280 0 241 5 -160
2020-05-07 14:45:38 GMT 29.982330 -95.351196 0 250 9 -160
2020-05-07 14:45:35 GMT 29.982370 -95.351067 0 232 9 -160
2020-05-07 14:45:32 GMT 29.982430 -95.350983 0 241 8 -160
2020-05-07 14:45:29 GMT 29.982491 -95.350868 0 246 9 -160
2020-05-07 14:45:26 GMT 29.982550 -95.350731 0 255 10 -160
2020-05-07 14:45:23 GMT 29.982571 -95.350578 0 265 8 -160
2020-05-07 14:45:20 GMT 29.982559 -95.350441 0 273 8 -160
2020-05-07 14:45:17 GMT 29.982540 -95.350311 0 269 9 -160
2020-05-07 14:45:14 GMT 29.982571 -95.350159 0 269 8 -160
2020-05-07 14:45:11 GMT 29.982559 -95.350029 0 268 10 -160
2020-05-07 14:45:08 GMT 29.982580 -95.349869 0 269 10 -160
2020-05-07 14:45:05 GMT 29.982590 -95.349693 0 266 12 -160
2020-05-07 14:45:02 GMT 29.982571 -95.349541 0 274 10 -160
2020-05-07 14:44:59 GMT 29.982540 -95.349403 0 260 12 -160
2020-05-07 14:44:56 GMT 29.982559 -95.349197 0 277 14 -160
2020-05-07 14:44:53 GMT 29.982500 -95.348907 0 260 7 -160
2020-05-07 14:44:50 GMT 29.982519 -95.348793 0 264 7 -160
2020-05-07 14:44:47 GMT 29.982550 -95.348679 0 273 13 -160
2020-05-07 14:44:44 GMT 29.982559 -95.348503 0 268 10 -160
2020-05-07 14:44:41 GMT 29.982571 -95.348328 0 253 14 -160
2020-05-07 14:44:38 GMT 29.982611 -95.348106 0 275 10 -160
2020-05-07 14:44:35 GMT 29.982599 -95.347954 0 267 12 -160
2020-05-07 14:44:32 GMT 29.982571 -95.347748 0 263 14 -160
2020-05-07 14:44:29 GMT 29.982599 -95.347527 0 268 13 -160
2020-05-07 14:44:26 GMT 29.982580 -95.347343 0 269 14 -160
2020-05-07 14:44:23 GMT 29.982559 -95.346939 0 274 11 -160
2020-05-07 14:44:20 GMT 29.982559 -95.346939 0 266 12 -160
2020-05-07 14:44:17 GMT 29.982599 -95.346748 0 268 12 -160
2020-05-07 14:44:14 GMT 29.982599 -95.346542 0 275 12 -160
2020-05-07 14:44:11 GMT 29.982571 -95.346336 0 276 14 -160
2020-05-07 14:44:08 GMT 29.982550 -95.346153 0 265 14 -160
2020-05-07 14:44:05 GMT 29.982550 -95.345932 0 262 17 -160
2020-05-07 14:44:02 GMT 29.982559 -95.345703 0 252 14 -160
2020-05-07 14:43:59 GMT 29.982651 -95.345490 0 263 13 -160
2020-05-07 14:43:56 GMT 29.982660 -95.345284 0 256 13 -160
2020-05-07 14:43:53 GMT 29.982719 -95.345093 0 259 13 -160
2020-05-07 14:43:50 GMT 29.982731 -95.344849 0 257 13 -160
2020-05-07 14:43:47 GMT 29.982849 -95.344437 0 251 15 -160
2020-05-07 14:43:44 GMT 29.982849 -95.344437 0 255 12 -160
2020-05-07 14:43:41 GMT 29.982880 -95.344254 0 246 13 -160
2020-05-07 14:43:38 GMT 29.982969 -95.343880 0 263 14 -160
2020-05-07 14:43:35 GMT 29.982969 -95.343880 0 263 13 -160
2020-05-07 14:43:32 GMT 29.983021 -95.343658 0 266 14 -160
2020-05-07 14:43:29 GMT 29.983040 -95.343430 0 262 16 -160
2020-05-07 14:43:26 GMT 29.983009 -95.343231 0 265 15 -160
2020-05-07 14:43:23 GMT 29.983030 -95.343002 0 268 14 -160
2020-05-07 14:43:20 GMT 29.983049 -95.342743 0 266 11 -160
2020-05-07 14:43:17 GMT 29.983070 -95.342560 0 273 12 -160
2020-05-07 14:43:14 GMT 29.983061 -95.342369 0 274 13 -160
2020-05-07 14:43:11 GMT 29.983030 -95.342163 0 270 12 -160
2020-05-07 14:43:08 GMT 29.983040 -95.341980 0 267 14 -160
2020-05-07 14:43:05 GMT 29.983030 -95.341782 0 276 13 -160
2020-05-07 14:43:02 GMT 29.983049 -95.341537 0 274 12 -160
2020-05-07 14:42:59 GMT 29.983021 -95.341362 0 270 14 -160
2020-05-07 14:42:56 GMT 29.983040 -95.341141 0 264 13 -160
2020-05-07 14:42:53 GMT 29.983061 -95.340950 0 265 14 -160
2020-05-07 14:42:50 GMT 29.983101 -95.340714 0 270 12 -160
2020-05-07 14:42:47 GMT 29.983070 -95.340538 0 263 14 -160
2020-05-07 14:42:44 GMT 29.983120 -95.340286 0 265 14 -160
2020-05-07 14:42:41 GMT 29.983130 -95.340057 0 271 14 -160
2020-05-07 14:42:38 GMT 29.983150 -95.339851 0 266 13 -160
2020-05-07 14:42:35 GMT 29.983150 -95.339630 0 264 11 -160
2020-05-07 14:42:32 GMT 29.983150 -95.339500 0 268 15 -160
2020-05-07 14:42:29 GMT 29.983141 -95.339279 0 263 13 -160
2020-05-07 14:42:26 GMT 29.983160 -95.339088 0 268 15 -160
2020-05-07 14:42:23 GMT 29.983170 -95.338837 0 272 11 -160
2020-05-07 14:42:20 GMT 29.983160 -95.338692 0 269 10 -160
2020-05-07 14:42:17 GMT 29.983160 -95.338539 0 263 8 -160
2020-05-07 14:42:14 GMT 29.983170 -95.338348 0 271 11 -160
2020-05-07 14:42:11 GMT 29.983150 -95.338219 0 267 8 -160
2020-05-07 14:42:08 GMT 29.983179 -95.338081 0 272 9 -160
2020-05-07 14:42:05 GMT 29.983200 -95.337936 0 274 9 -160
2020-05-07 14:42:02 GMT 29.983170 -95.337769 0 268 8 -160
2020-05-07 14:41:59 GMT 29.983170 -95.337631 0 272 8 -160
2020-05-07 14:41:56 GMT 29.983160 -95.337502 0 262 9 -160
2020-05-07 14:41:53 GMT 29.983179 -95.337349 0 259 10 -160
2020-05-07 14:41:50 GMT 29.983200 -95.337219 0 255 9 -160
2020-05-07 14:41:47 GMT 29.983200 -95.337090 0 235 7 -160
2020-05-07 14:41:44 GMT 29.983231 -95.336960 0 225 7 -160
2020-05-07 14:41:41 GMT 29.983299 -95.336884 0 262 5 -160
2020-05-07 14:41:38 GMT 29.983360 -95.336807 0 0 5 -160

Making use of Plane Finder data

You are free to use the raw flight data, aircraft information and images provided in this report for your own purposes provided the data is correctly attributed to Plane Finder. We ask that you please credit Plane Finder and link to planefinder.net in close proximity to the content.

Optionally one of the following logos (no smaller then 150x24px) can be used and must link to planefinder.net

Embedding the Plane Finder map

You are welcome to embed the Plane Finder playback map on your website to offer visitors a more interactive experience. We suggest using the following HTML code:

<iframe src="//planefinder.net/data/report/UA1060-N87513-7700-squawk-2020-05-07/map" width="800" height="600" seamless="seamless"></iframe>

Where our data comes from

Plane Finder has a global network of data feeds and antenna radars that receive data broadcast directly from aircraft. The primary technologies used are ADS-B and MLAT. We also show feeds from the FAA and a FLARM glider feed.

Click here to find out more about the Plane Finder network.

How we collect our data